<?xml version="1.0" encoding="utf-8"?>
<gpx xmlns:xsi="http://www.w3.org/2001/XMLSchema-instance" xmlns:xsd="http://www.w3.org/2001/XMLSchema" version="1.1" creator="Shapelink.com" xmlns="http://www.topografix.com/GPX/1/1" xmlns:gpxtpx="http://www.garmin.com/xmlschemas/TrackPointExtension/v1">
  <metadata>
    <name>Ejecutar 14.30 km, 2020-01-13</name>
    <desc></desc>
    <author><name>Per Rooth</name></author> 
    <time>2020-01-13T18:01:52Z</time>
  </metadata>
  <trk>
    <name>Ejecutar 14.30 km, 2020-01-13</name>
    <trkseg>
      <trkpt lat="56.883232183169" lon="14.833416662599">
        <ele>183</ele>
        <time>2020-01-13T18:01:52Z</time>
      </trkpt>
      <trkpt lat="56.883289599184" lon="14.833541049995">
        <ele>184.2</ele>
        <time>2020-01-13T18:01:56Z</time>
      </trkpt>
      <trkpt lat="56.883307787907" lon="14.833569464636">
        <ele>184.2</ele>
        <time>2020-01-13T18:01:57Z</time>
      </trkpt>
      <trkpt lat="56.883436785348" lon="14.833792674633">
        <ele>183</ele>
        <time>2020-01-13T18:02:04Z</time>
      </trkpt>
      <trkpt lat="56.883601405864" lon="14.833990990387">
        <ele>184</ele>
        <time>2020-01-13T18:02:11Z</time>
      </trkpt>
      <trkpt lat="56.883766696932" lon="14.834154269799">
        <ele>184.4</ele>
        <time>2020-01-13T18:02:17Z</time>
      </trkpt>
      <trkpt lat="56.883936765683" lon="14.834280836489">
        <ele>183.2</ele>
        <time>2020-01-13T18:02:24Z</time>
      </trkpt>
      <trkpt lat="56.884062326545" lon="14.834369852267">
        <ele>183</ele>
        <time>2020-01-13T18:02:29Z</time>
      </trkpt>
      <trkpt lat="56.884116473619" lon="14.834396255252">
        <ele>183.2</ele>
        <time>2020-01-13T18:02:31Z</time>
      </trkpt>
      <trkpt lat="56.884283273429" lon="14.834576214645">
        <ele>182.6</ele>
        <time>2020-01-13T18:02:38Z</time>
      </trkpt>
      <trkpt lat="56.88440221259" lon="14.834847788205">
        <ele>182.8</ele>
        <time>2020-01-13T18:02:44Z</time>
      </trkpt>
      <trkpt lat="56.884492904748" lon="14.835158924333">
        <ele>183.4</ele>
        <time>2020-01-13T18:02:51Z</time>
      </trkpt>
      <trkpt lat="56.8845606305" lon="14.8353427394">
        <ele>184</ele>
        <time>2020-01-13T18:02:55Z</time>
      </trkpt>
      <trkpt lat="56.884577561938" lon="14.835382218149">
        <ele>184</ele>
        <time>2020-01-13T18:02:56Z</time>
      </trkpt>
      <trkpt lat="56.884599103421" lon="14.835428402418">
        <ele>184</ele>
        <time>2020-01-13T18:02:58Z</time>
      </trkpt>
      <trkpt lat="56.884696752556" lon="14.835719757262">
        <ele>184.8</ele>
        <time>2020-01-13T18:03:04Z</time>
      </trkpt>
      <trkpt lat="56.884723406998" lon="14.835801648425">
        <ele>185.2</ele>
        <time>2020-01-13T18:03:06Z</time>
      </trkpt>
      <trkpt lat="56.884743607377" lon="14.835839953708">
        <ele>186.2</ele>
        <time>2020-01-13T18:03:08Z</time>
      </trkpt>
      <trkpt lat="56.884768333982" lon="14.835878007534">
        <ele>187.2</ele>
        <time>2020-01-13T18:03:10Z</time>
      </trkpt>
      <trkpt lat="56.884838239028" lon="14.835946068562">
        <ele>188.4</ele>
        <time>2020-01-13T18:03:13Z</time>
      </trkpt>
      <trkpt lat="56.885032699108" lon="14.835974986117">
        <ele>189.8</ele>
        <time>2020-01-13T18:03:19Z</time>
      </trkpt>
      <trkpt lat="56.885222968238" lon="14.835925700545">
        <ele>189.6</ele>
        <time>2020-01-13T18:03:25Z</time>
      </trkpt>
      <trkpt lat="56.88529320856" lon="14.835891250936">
        <ele>189</ele>
        <time>2020-01-13T18:03:27Z</time>
      </trkpt>
      <trkpt lat="56.8853485291" lon="14.835853783843">
        <ele>188.6</ele>
        <time>2020-01-13T18:03:29Z</time>
      </trkpt>
      <trkpt lat="56.885538546773" lon="14.83570651386">
        <ele>188.4</ele>
        <time>2020-01-13T18:03:36Z</time>
      </trkpt>
      <trkpt lat="56.885734012681" lon="14.835596124237">
        <ele>188.2</ele>
        <time>2020-01-13T18:03:42Z</time>
      </trkpt>
      <trkpt lat="56.885928808037" lon="14.835496463446">
        <ele>187.6</ele>
        <time>2020-01-13T18:03:48Z</time>
      </trkpt>
      <trkpt lat="56.88606853431" lon="14.835481124569">
        <ele>188.8</ele>
        <time>2020-01-13T18:03:54Z</time>
      </trkpt>
      <trkpt lat="56.886100553168" lon="14.835475257239">
        <ele>189.4</ele>
        <time>2020-01-13T18:03:55Z</time>
      </trkpt>
      <trkpt lat="56.88619593919" lon="14.835460756552">
        <ele>190</ele>
        <time>2020-01-13T18:03:58Z</time>
      </trkpt>
      <trkpt lat="56.886399367903" lon="14.835520184223">
        <ele>190.6</ele>
        <time>2020-01-13T18:04:05Z</time>
      </trkpt>
      <trkpt lat="56.886559797469" lon="14.835741634021">
        <ele>191</ele>
        <time>2020-01-13T18:04:11Z</time>
      </trkpt>
      <trkpt lat="56.886673791309" lon="14.836016727979">
        <ele>191</ele>
        <time>2020-01-13T18:04:17Z</time>
      </trkpt>
      <trkpt lat="56.886723663614" lon="14.836194088983">
        <ele>191.4</ele>
        <time>2020-01-13T18:04:21Z</time>
      </trkpt>
      <trkpt lat="56.88676255563" lon="14.836349992323">
        <ele>192</ele>
        <time>2020-01-13T18:04:24Z</time>
      </trkpt>
      <trkpt lat="56.88683966911" lon="14.836705720159">
        <ele>192.4</ele>
        <time>2020-01-13T18:04:30Z</time>
      </trkpt>
      <trkpt lat="56.886851152313" lon="14.836762130346">
        <ele>190.8</ele>
        <time>2020-01-13T18:04:34Z</time>
      </trkpt>
      <trkpt lat="56.886897420401" lon="14.836967486896">
        <ele>190</ele>
        <time>2020-01-13T18:04:38Z</time>
      </trkpt>
      <trkpt lat="56.886903036274" lon="14.837013671165">
        <ele>189.8</ele>
        <time>2020-01-13T18:04:39Z</time>
      </trkpt>
      <trkpt lat="56.886927176146" lon="14.837384989335">
        <ele>190</ele>
        <time>2020-01-13T18:04:46Z</time>
      </trkpt>
      <trkpt lat="56.886965146153" lon="14.837619766354">
        <ele>191</ele>
        <time>2020-01-13T18:04:51Z</time>
      </trkpt>
      <trkpt lat="56.887014515544" lon="14.837800144842">
        <ele>192</ele>
        <time>2020-01-13T18:04:55Z</time>
      </trkpt>
      <trkpt lat="56.887082492753" lon="14.837936685993">
        <ele>193.2</ele>
        <time>2020-01-13T18:04:59Z</time>
      </trkpt>
      <trkpt lat="56.887210065271" lon="14.838211360856">
        <ele>194</ele>
        <time>2020-01-13T18:05:06Z</time>
      </trkpt>
      <trkpt lat="56.88725792592" lon="14.838339603926">
        <ele>194.2</ele>
        <time>2020-01-13T18:05:09Z</time>
      </trkpt>
      <trkpt lat="56.887379044375" lon="14.838647219656">
        <ele>194</ele>
        <time>2020-01-13T18:05:16Z</time>
      </trkpt>
      <trkpt lat="56.887519776476" lon="14.838930276419">
        <ele>193.6</ele>
        <time>2020-01-13T18:05:22Z</time>
      </trkpt>
      <trkpt lat="56.887579874699" lon="14.839053322711">
        <ele>193.2</ele>
        <time>2020-01-13T18:05:25Z</time>
      </trkpt>
      <trkpt lat="56.887695544919" lon="14.839306791367">
        <ele>193.4</ele>
        <time>2020-01-13T18:05:32Z</time>
      </trkpt>
      <trkpt lat="56.887741142455" lon="14.839434950618">
        <ele>194</ele>
        <time>2020-01-13T18:05:35Z</time>
      </trkpt>
      <trkpt lat="56.887772155485" lon="14.839472585349">
        <ele>194.4</ele>
        <time>2020-01-13T18:05:36Z</time>
      </trkpt>
      <trkpt lat="56.887908696636" lon="14.839739213588">
        <ele>194</ele>
        <time>2020-01-13T18:05:42Z</time>
      </trkpt>
      <trkpt lat="56.887982457356" lon="14.840091672483">
        <ele>193.8</ele>
        <time>2020-01-13T18:05:49Z</time>
      </trkpt>
      <trkpt lat="56.88806091194" lon="14.840394091435">
        <ele>195</ele>
        <time>2020-01-13T18:05:56Z</time>
      </trkpt>
      <trkpt lat="56.888147664605" lon="14.840639932562">
        <ele>195.4</ele>
        <time>2020-01-13T18:06:01Z</time>
      </trkpt>
      <trkpt lat="56.888270627078" lon="14.84090915919">
        <ele>195.6</ele>
        <time>2020-01-13T18:06:08Z</time>
      </trkpt>
      <trkpt lat="56.888412029731" lon="14.841071600412">
        <ele>196.4</ele>
        <time>2020-01-13T18:06:13Z</time>
      </trkpt>
      <trkpt lat="56.888612943874" lon="14.841079730855">
        <ele>197.2</ele>
        <time>2020-01-13T18:06:19Z</time>
      </trkpt>
      <trkpt lat="56.888735403433" lon="14.841003455565">
        <ele>197.6</ele>
        <time>2020-01-13T18:06:24Z</time>
      </trkpt>
      <trkpt lat="56.888902119424" lon="14.840863310197">
        <ele>196.6</ele>
        <time>2020-01-13T18:06:30Z</time>
      </trkpt>
      <trkpt lat="56.888938915965" lon="14.840846211121">
        <ele>195.8</ele>
        <time>2020-01-13T18:06:31Z</time>
      </trkpt>
      <trkpt lat="56.889012592866" lon="14.840808492571">
        <ele>194</ele>
        <time>2020-01-13T18:06:33Z</time>
      </trkpt>
      <trkpt lat="56.8890868565" lon="14.840784017423">
        <ele>192.8</ele>
        <time>2020-01-13T18:06:35Z</time>
      </trkpt>
      <trkpt lat="56.88921342319" lon="14.840739341896">
        <ele>191.8</ele>
        <time>2020-01-13T18:06:39Z</time>
      </trkpt>
      <trkpt lat="56.889268240816" lon="14.8407071554">
        <ele>191.4</ele>
        <time>2020-01-13T18:06:41Z</time>
      </trkpt>
      <trkpt lat="56.889440656499" lon="14.840611853197">
        <ele>191.6</ele>
        <time>2020-01-13T18:06:47Z</time>
      </trkpt>
      <trkpt lat="56.889605863748" lon="14.840453435287">
        <ele>192</ele>
        <time>2020-01-13T18:06:53Z</time>
      </trkpt>
      <trkpt lat="56.889779536716" lon="14.84031069153">
        <ele>192.6</ele>
        <time>2020-01-13T18:06:59Z</time>
      </trkpt>
      <trkpt lat="56.889867630485" lon="14.840245564167">
        <ele>193.2</ele>
        <time>2020-01-13T18:07:02Z</time>
      </trkpt>
      <trkpt lat="56.890036609589" lon="14.840114722708">
        <ele>193.2</ele>
        <time>2020-01-13T18:07:08Z</time>
      </trkpt>
      <trkpt lat="56.890216401344" lon="14.839997795203">
        <ele>194</ele>
        <time>2020-01-13T18:07:15Z</time>
      </trkpt>
      <trkpt lat="56.890245570356" lon="14.839981701955">
        <ele>194.2</ele>
        <time>2020-01-13T18:07:16Z</time>
      </trkpt>
      <trkpt lat="56.890414968555" lon="14.839880280965">
        <ele>195.4</ele>
        <time>2020-01-13T18:07:22Z</time>
      </trkpt>
      <trkpt lat="56.890606075875" lon="14.839797635431">
        <ele>195</ele>
        <time>2020-01-13T18:07:29Z</time>
      </trkpt>
      <trkpt lat="56.890812019158" lon="14.839711050404">
        <ele>196</ele>
        <time>2020-01-13T18:07:36Z</time>
      </trkpt>
      <trkpt lat="56.890998600252" lon="14.839562020222">
        <ele>195.8</ele>
        <time>2020-01-13T18:07:43Z</time>
      </trkpt>
      <trkpt lat="56.891176045075" lon="14.839422964501">
        <ele>195.6</ele>
        <time>2020-01-13T18:07:49Z</time>
      </trkpt>
      <trkpt lat="56.891293140218" lon="14.839307126643">
        <ele>195.4</ele>
        <time>2020-01-13T18:07:53Z</time>
      </trkpt>
      <trkpt lat="56.891396572864" lon="14.839150552751">
        <ele>194</ele>
        <time>2020-01-13T18:07:57Z</time>
      </trkpt>
      <trkpt lat="56.891479469855" lon="14.839026332993">
        <ele>192.8</ele>
        <time>2020-01-13T18:08:00Z</time>
      </trkpt>
      <trkpt lat="56.891575945524" lon="14.838930946971">
        <ele>191.6</ele>
        <time>2020-01-13T18:08:03Z</time>
      </trkpt>
      <trkpt lat="56.891785576843" lon="14.838873782413">
        <ele>190.8</ele>
        <time>2020-01-13T18:08:09Z</time>
      </trkpt>
      <trkpt lat="56.891983222045" lon="14.838841009184">
        <ele>190.6</ele>
        <time>2020-01-13T18:08:15Z</time>
      </trkpt>
      <trkpt lat="56.892050947797" lon="14.838831621456">
        <ele>190.6</ele>
        <time>2020-01-13T18:08:17Z</time>
      </trkpt>
      <trkpt lat="56.892264853885" lon="14.838772864337">
        <ele>190</ele>
        <time>2020-01-13T18:08:23Z</time>
      </trkpt>
      <trkpt lat="56.892427630383" lon="14.838622157775">
        <ele>191.4</ele>
        <time>2020-01-13T18:08:29Z</time>
      </trkpt>
      <trkpt lat="56.892601722446" lon="14.838451921386">
        <ele>190.6</ele>
        <time>2020-01-13T18:08:35Z</time>
      </trkpt>
      <trkpt lat="56.892775646871" lon="14.838241703334">
        <ele>190</ele>
        <time>2020-01-13T18:08:41Z</time>
      </trkpt>
      <trkpt lat="56.892910260185" lon="14.838020337355">
        <ele>189.8</ele>
        <time>2020-01-13T18:08:47Z</time>
      </trkpt>
      <trkpt lat="56.893038838531" lon="14.837768377441">
        <ele>190.2</ele>
        <time>2020-01-13T18:08:54Z</time>
      </trkpt>
      <trkpt lat="56.893186527609" lon="14.837518764459">
        <ele>190.6</ele>
        <time>2020-01-13T18:09:00Z</time>
      </trkpt>
      <trkpt lat="56.893292977739" lon="14.837375098693">
        <ele>190.8</ele>
        <time>2020-01-13T18:09:04Z</time>
      </trkpt>
      <trkpt lat="56.893461789205" lon="14.837172089075">
        <ele>191.2</ele>
        <time>2020-01-13T18:09:10Z</time>
      </trkpt>
      <trkpt lat="56.893596570157" lon="14.836887858846">
        <ele>190.4</ele>
        <time>2020-01-13T18:09:16Z</time>
      </trkpt>
      <trkpt lat="56.893755407162" lon="14.836706223073">
        <ele>190</ele>
        <time>2020-01-13T18:09:22Z</time>
      </trkpt>
      <trkpt lat="56.893920782049" lon="14.836514780477">
        <ele>189.8</ele>
        <time>2020-01-13T18:09:29Z</time>
      </trkpt>
      <trkpt lat="56.894068471127" lon="14.836293917412">
        <ele>190</ele>
        <time>2020-01-13T18:09:35Z</time>
      </trkpt>
      <trkpt lat="56.894203335898" lon="14.836141618289">
        <ele>189.6</ele>
        <time>2020-01-13T18:09:40Z</time>
      </trkpt>
      <trkpt lat="56.894372650278" lon="14.836020751291">
        <ele>189.4</ele>
        <time>2020-01-13T18:09:46Z</time>
      </trkpt>
      <trkpt lat="56.894578258285" lon="14.835939865956">
        <ele>189.4</ele>
        <time>2020-01-13T18:09:52Z</time>
      </trkpt>
      <trkpt lat="56.894774897659" lon="14.835833583464">
        <ele>190</ele>
        <time>2020-01-13T18:09:58Z</time>
      </trkpt>
      <trkpt lat="56.894946307514" lon="14.835701903815">
        <ele>189.8</ele>
        <time>2020-01-13T18:10:03Z</time>
      </trkpt>
      <trkpt lat="56.895111933858" lon="14.835524961906">
        <ele>189.2</ele>
        <time>2020-01-13T18:10:09Z</time>
      </trkpt>
      <trkpt lat="56.895282505523" lon="14.83540560365">
        <ele>189.4</ele>
        <time>2020-01-13T18:10:15Z</time>
      </trkpt>
      <trkpt lat="56.895461375269" lon="14.835350953662">
        <ele>189.6</ele>
        <time>2020-01-13T18:10:21Z</time>
      </trkpt>
      <trkpt lat="56.895648291639" lon="14.835345170151">
        <ele>190</ele>
        <time>2020-01-13T18:10:27Z</time>
      </trkpt>
      <trkpt lat="56.895807547739" lon="14.835345673065">
        <ele>190.8</ele>
        <time>2020-01-13T18:10:33Z</time>
      </trkpt>
      <trkpt lat="56.895849541058" lon="14.835329831274">
        <ele>191.8</ele>
        <time>2020-01-13T18:10:35Z</time>
      </trkpt>
      <trkpt lat="56.896018771619" lon="14.835212736131">
        <ele>192.6</ele>
        <time>2020-01-13T18:10:41Z</time>
      </trkpt>
      <trkpt lat="56.896207532007" lon="14.835121038145">
        <ele>191.8</ele>
        <time>2020-01-13T18:10:47Z</time>
      </trkpt>
      <trkpt lat="56.896354299076" lon="14.83506362213">
        <ele>190.4</ele>
        <time>2020-01-13T18:10:51Z</time>
      </trkpt>
      <trkpt lat="56.896479273205" lon="14.835057838619">
        <ele>189.2</ele>
        <time>2020-01-13T18:10:55Z</time>
      </trkpt>
      <trkpt lat="56.896678091873" lon="14.835059012085">
        <ele>190</ele>
        <time>2020-01-13T18:11:01Z</time>
      </trkpt>
      <trkpt lat="56.896861320207" lon="14.83506529851">
        <ele>189.6</ele>
        <time>2020-01-13T18:11:08Z</time>
      </trkpt>
      <trkpt lat="56.897055445011" lon="14.835088264916">
        <ele>189.6</ele>
        <time>2020-01-13T18:11:14Z</time>
      </trkpt>
      <trkpt lat="56.897176647285" lon="14.835237881831">
        <ele>190.4</ele>
        <time>2020-01-13T18:11:19Z</time>
      </trkpt>
      <trkpt lat="56.897323581992" lon="14.835444914761">
        <ele>191</ele>
        <time>2020-01-13T18:11:26Z</time>
      </trkpt>
      <trkpt lat="56.897394073771" lon="14.835512640513">
        <ele>191.4</ele>
        <time>2020-01-13T18:11:29Z</time>
      </trkpt>
      <trkpt lat="56.897462721532" lon="14.835549101778">
        <ele>191.6</ele>
        <time>2020-01-13T18:11:31Z</time>
      </trkpt>
      <trkpt lat="56.897669503005" lon="14.835551029615">
        <ele>192.4</ele>
        <time>2020-01-13T18:11:37Z</time>
      </trkpt>
      <trkpt lat="56.897884079645" lon="14.835540971335">
        <ele>192</ele>
        <time>2020-01-13T18:11:43Z</time>
      </trkpt>
      <trkpt lat="56.898076947164" lon="14.835398730492">
        <ele>191</ele>
        <time>2020-01-13T18:11:48Z</time>
      </trkpt>
      <trkpt lat="56.898193958488" lon="14.835308289791">
        <ele>190.4</ele>
        <time>2020-01-13T18:11:51Z</time>
      </trkpt>
      <trkpt lat="56.898366206533" lon="14.835140148877">
        <ele>189.4</ele>
        <time>2020-01-13T18:11:56Z</time>
      </trkpt>
      <trkpt lat="56.898465699686" lon="14.834993381808">
        <ele>188</ele>
        <time>2020-01-13T18:12:00Z</time>
      </trkpt>
      <trkpt lat="56.898628308546" lon="14.83482557617">
        <ele>187.2</ele>
        <time>2020-01-13T18:12:06Z</time>
      </trkpt>
      <trkpt lat="56.898811201604" lon="14.834784923955">
        <ele>187.4</ele>
        <time>2020-01-13T18:12:11Z</time>
      </trkpt>
      <trkpt lat="56.898879681727" lon="14.834791294199">
        <ele>187</ele>
        <time>2020-01-13T18:12:13Z</time>
      </trkpt>
      <trkpt lat="56.899046816813" lon="14.834992795075">
        <ele>185.8</ele>
        <time>2020-01-13T18:12:19Z</time>
      </trkpt>
      <trkpt lat="56.899162654671" lon="14.835288927602">
        <ele>185</ele>
        <time>2020-01-13T18:12:24Z</time>
      </trkpt>
      <trkpt lat="56.899197691013" lon="14.835399568682">
        <ele>184.8</ele>
        <time>2020-01-13T18:12:26Z</time>
      </trkpt>
      <trkpt lat="56.89935300762" lon="14.835597884436">
        <ele>183.8</ele>
        <time>2020-01-13T18:12:31Z</time>
      </trkpt>
      <trkpt lat="56.899379578243" lon="14.835616911349">
        <ele>183.6</ele>
        <time>2020-01-13T18:12:32Z</time>
      </trkpt>
      <trkpt lat="56.899579654196" lon="14.8355103774">
        <ele>183.2</ele>
        <time>2020-01-13T18:12:38Z</time>
      </trkpt>
      <trkpt lat="56.899751315508" lon="14.835301584271">
        <ele>183.4</ele>
        <time>2020-01-13T18:12:44Z</time>
      </trkpt>
      <trkpt lat="56.899888024297" lon="14.835086085622">
        <ele>183.4</ele>
        <time>2020-01-13T18:12:49Z</time>
      </trkpt>
      <trkpt lat="56.900044095275" lon="14.834891290266">
        <ele>182.4</ele>
        <time>2020-01-13T18:12:54Z</time>
      </trkpt>
      <trkpt lat="56.900223132659" lon="14.834733039994">
        <ele>183.4</ele>
        <time>2020-01-13T18:13:00Z</time>
      </trkpt>
      <trkpt lat="56.900255822069" lon="14.834711917606">
        <ele>183.6</ele>
        <time>2020-01-13T18:13:01Z</time>
      </trkpt>
      <trkpt lat="56.900446677932" lon="14.834583590717">
        <ele>184</ele>
        <time>2020-01-13T18:13:08Z</time>
      </trkpt>
      <trkpt lat="56.900623787479" lon="14.834433722345">
        <ele>183.6</ele>
        <time>2020-01-13T18:13:14Z</time>
      </trkpt>
      <trkpt lat="56.900783546493" lon="14.834278741014">
        <ele>182.8</ele>
        <time>2020-01-13T18:13:20Z</time>
      </trkpt>
      <trkpt lat="56.900815230075" lon="14.834196179299">
        <ele>182.4</ele>
        <time>2020-01-13T18:13:22Z</time>
      </trkpt>
      <trkpt lat="56.900871053529" lon="14.833876493633">
        <ele>182</ele>
        <time>2020-01-13T18:13:28Z</time>
      </trkpt>
      <trkpt lat="56.900839453766" lon="14.83353643995">
        <ele>182.6</ele>
        <time>2020-01-13T18:13:34Z</time>
      </trkpt>
      <trkpt lat="56.900720514605" lon="14.833183310503">
        <ele>182.8</ele>
        <time>2020-01-13T18:13:40Z</time>
      </trkpt>
      <trkpt lat="56.900563773075" lon="14.832980217066">
        <ele>182.2</ele>
        <time>2020-01-13T18:13:44Z</time>
      </trkpt>
      <trkpt lat="56.900384232777" lon="14.832846441942">
        <ele>182.2</ele>
        <time>2020-01-13T18:13:52Z</time>
      </trkpt>
      <trkpt lat="56.900281303045" lon="14.832747284065">
        <ele>183.4</ele>
        <time>2020-01-13T18:13:56Z</time>
      </trkpt>
      <trkpt lat="56.900113078312" lon="14.832606551964">
        <ele>183</ele>
        <time>2020-01-13T18:14:02Z</time>
      </trkpt>
      <trkpt lat="56.899933621833" lon="14.832491803753">
        <ele>183</ele>
        <time>2020-01-13T18:14:09Z</time>
      </trkpt>
      <trkpt lat="56.899755841734" lon="14.832342186838">
        <ele>183.8</ele>
        <time>2020-01-13T18:14:17Z</time>
      </trkpt>
      <trkpt lat="56.899633046899" lon="14.832074468952">
        <ele>184.6</ele>
        <time>2020-01-13T18:14:23Z</time>
      </trkpt>
      <trkpt lat="56.899561046378" lon="14.831805996695">
        <ele>186</ele>
        <time>2020-01-13T18:14:28Z</time>
      </trkpt>
      <trkpt lat="56.899552077745" lon="14.831657385608">
        <ele>187.4</ele>
        <time>2020-01-13T18:14:31Z</time>
      </trkpt>
      <trkpt lat="56.89953321847" lon="14.831523778122">
        <ele>188.4</ele>
        <time>2020-01-13T18:14:34Z</time>
      </trkpt>
      <trkpt lat="56.899443867416" lon="14.831186406647">
        <ele>188.8</ele>
        <time>2020-01-13T18:14:41Z</time>
      </trkpt>
      <trkpt lat="56.899375806388" lon="14.830859680185">
        <ele>188</ele>
        <time>2020-01-13T18:14:46Z</time>
      </trkpt>
      <trkpt lat="56.899341524417" lon="14.830667818494">
        <ele>187.2</ele>
        <time>2020-01-13T18:14:49Z</time>
      </trkpt>
      <trkpt lat="56.899282934936" lon="14.830499090847">
        <ele>185.6</ele>
        <time>2020-01-13T18:14:52Z</time>
      </trkpt>
      <trkpt lat="56.899208252207" lon="14.830327261897">
        <ele>184.6</ele>
        <time>2020-01-13T18:14:55Z</time>
      </trkpt>
      <trkpt lat="56.899042961139" lon="14.830131041618">
        <ele>185.4</ele>
        <time>2020-01-13T18:15:04Z</time>
      </trkpt>
      <trkpt lat="56.898861409185" lon="14.830016377226">
        <ele>184.6</ele>
        <time>2020-01-13T18:15:10Z</time>
      </trkpt>
      <trkpt lat="56.898820673151" lon="14.830003972014">
        <ele>184.2</ele>
        <time>2020-01-13T18:15:11Z</time>
      </trkpt>
      <trkpt lat="56.898786223542" lon="14.830004139652">
        <ele>183.6</ele>
        <time>2020-01-13T18:15:12Z</time>
      </trkpt>
      <trkpt lat="56.898580866992" lon="14.830008079145">
        <ele>182.6</ele>
        <time>2020-01-13T18:15:18Z</time>
      </trkpt>
      <trkpt lat="56.898431920629" lon="14.830215279713">
        <ele>183.6</ele>
        <time>2020-01-13T18:15:24Z</time>
      </trkpt>
      <trkpt lat="56.898257325652" lon="14.830340170023">
        <ele>184.4</ele>
        <time>2020-01-13T18:15:30Z</time>
      </trkpt>
      <trkpt lat="56.898230335934" lon="14.83035131795">
        <ele>184.6</ele>
        <time>2020-01-13T18:15:31Z</time>
      </trkpt>
      <trkpt lat="56.898055657138" lon="14.830463886867">
        <ele>185.6</ele>
        <time>2020-01-13T18:15:37Z</time>
      </trkpt>
      <trkpt lat="56.898019614968" lon="14.830465060333">
        <ele>185.8</ele>
        <time>2020-01-13T18:15:38Z</time>
      </trkpt>
      <trkpt lat="56.897848875665" lon="14.83060612771">
        <ele>185.8</ele>
        <time>2020-01-13T18:15:44Z</time>
      </trkpt>
      <trkpt lat="56.89769003866" lon="14.830663040811">
        <ele>186.8</ele>
        <time>2020-01-13T18:15:49Z</time>
      </trkpt>
      <trkpt lat="56.897524160859" lon="14.830848532258">
        <ele>187.4</ele>
        <time>2020-01-13T18:15:55Z</time>
      </trkpt>
      <trkpt lat="56.897339842878" lon="14.830998735906">
        <ele>187.8</ele>
        <time>2020-01-13T18:16:02Z</time>
      </trkpt>
      <trkpt lat="56.897285611985" lon="14.831070987884">
        <ele>187.8</ele>
        <time>2020-01-13T18:16:04Z</time>
      </trkpt>
      <trkpt lat="56.897094337027" lon="14.831164948983">
        <ele>187.6</ele>
        <time>2020-01-13T18:16:11Z</time>
      </trkpt>
      <trkpt lat="56.89690381644" lon="14.831302160686">
        <ele>187</ele>
        <time>2020-01-13T18:16:17Z</time>
      </trkpt>
      <trkpt lat="56.896765431271" lon="14.831568537468">
        <ele>187</ele>
        <time>2020-01-13T18:16:23Z</time>
      </trkpt>
      <trkpt lat="56.896591590665" lon="14.831750592336">
        <ele>187.4</ele>
        <time>2020-01-13T18:16:29Z</time>
      </trkpt>
      <trkpt lat="56.896403249372" lon="14.831923343295">
        <ele>187.6</ele>
        <time>2020-01-13T18:16:35Z</time>
      </trkpt>
      <trkpt lat="56.896214656622" lon="14.832068266346">
        <ele>187.8</ele>
        <time>2020-01-13T18:16:41Z</time>
      </trkpt>
      <trkpt lat="56.896027488795" lon="14.832133645166">
        <ele>187.2</ele>
        <time>2020-01-13T18:16:47Z</time>
      </trkpt>
      <trkpt lat="56.895954063351" lon="14.83220455604">
        <ele>186.8</ele>
        <time>2020-01-13T18:16:50Z</time>
      </trkpt>
      <trkpt lat="56.895764632411" lon="14.832327434694">
        <ele>186.6</ele>
        <time>2020-01-13T18:16:56Z</time>
      </trkpt>
      <trkpt lat="56.895585846484" lon="14.832435477385">
        <ele>187.4</ele>
        <time>2020-01-13T18:17:02Z</time>
      </trkpt>
      <trkpt lat="56.89544536584" lon="14.832596745141">
        <ele>188</ele>
        <time>2020-01-13T18:17:07Z</time>
      </trkpt>
      <trkpt lat="56.895261299316" lon="14.832758431992">
        <ele>187.4</ele>
        <time>2020-01-13T18:17:13Z</time>
      </trkpt>
      <trkpt lat="56.895164907466" lon="14.832751391196">
        <ele>186.6</ele>
        <time>2020-01-13T18:17:16Z</time>
      </trkpt>
      <trkpt lat="56.89495753926" lon="14.832782990959">
        <ele>185.6</ele>
        <time>2020-01-13T18:17:22Z</time>
      </trkpt>
      <trkpt lat="56.89492820261" lon="14.832796821094">
        <ele>185.6</ele>
        <time>2020-01-13T18:17:23Z</time>
      </trkpt>
      <trkpt lat="56.894746231561" lon="14.832869575986">
        <ele>185</ele>
        <time>2020-01-13T18:17:29Z</time>
      </trkpt>
      <trkpt lat="56.894610612419" lon="14.833054061605">
        <ele>186</ele>
        <time>2020-01-13T18:17:36Z</time>
      </trkpt>
      <trkpt lat="56.894467114291" lon="14.833291353194">
        <ele>186</ele>
        <time>2020-01-13T18:17:42Z</time>
      </trkpt>
      <trkpt lat="56.894317329738" lon="14.83347776665">
        <ele>186.6</ele>
        <time>2020-01-13T18:17:48Z</time>
      </trkpt>
      <trkpt lat="56.894292435495" lon="14.833489836586">
        <ele>186.8</ele>
        <time>2020-01-13T18:17:49Z</time>
      </trkpt>
      <trkpt lat="56.894091102257" lon="14.833622354425">
        <ele>187.6</ele>
        <time>2020-01-13T18:17:56Z</time>
      </trkpt>
      <trkpt lat="56.893892451227" lon="14.833680524811">
        <ele>187.4</ele>
        <time>2020-01-13T18:18:02Z</time>
      </trkpt>
      <trkpt lat="56.893709977264" lon="14.833652613084">
        <ele>187.4</ele>
        <time>2020-01-13T18:18:08Z</time>
      </trkpt>
      <trkpt lat="56.89359715689" lon="14.833631742153">
        <ele>187.8</ele>
        <time>2020-01-13T18:18:12Z</time>
      </trkpt>
      <trkpt lat="56.893466734526" lon="14.833526297851">
        <ele>188.8</ele>
        <time>2020-01-13T18:18:18Z</time>
      </trkpt>
      <trkpt lat="56.893326002425" lon="14.833395456392">
        <ele>190</ele>
        <time>2020-01-13T18:18:23Z</time>
      </trkpt>
      <trkpt lat="56.893155011665" lon="14.83328582114">
        <ele>190.4</ele>
        <time>2020-01-13T18:18:28Z</time>
      </trkpt>
      <trkpt lat="56.892955690083" lon="14.833277523059">
        <ele>190.4</ele>
        <time>2020-01-13T18:18:34Z</time>
      </trkpt>
      <trkpt lat="56.892770785369" lon="14.833465277619">
        <ele>191</ele>
        <time>2020-01-13T18:18:40Z</time>
      </trkpt>
      <trkpt lat="56.892684954713" lon="14.833487741111">
        <ele>191.2</ele>
        <time>2020-01-13T18:18:43Z</time>
      </trkpt>
      <trkpt lat="56.892501391103" lon="14.833453626778">
        <ele>191.2</ele>
        <time>2020-01-13T18:18:49Z</time>
      </trkpt>
      <trkpt lat="56.89241530899" lon="14.83345848828">
        <ele>192.6</ele>
        <time>2020-01-13T18:18:52Z</time>
      </trkpt>
      <trkpt lat="56.892314977647" lon="14.833479778306">
        <ele>193.6</ele>
        <time>2020-01-13T18:18:56Z</time>
      </trkpt>
      <trkpt lat="56.892232751208" lon="14.833521184892">
        <ele>195</ele>
        <time>2020-01-13T18:18:59Z</time>
      </trkpt>
      <trkpt lat="56.892125127612" lon="14.833579439097">
        <ele>196.2</ele>
        <time>2020-01-13T18:19:02Z</time>
      </trkpt>
      <trkpt lat="56.891937121595" lon="14.833645907564">
        <ele>196.2</ele>
        <time>2020-01-13T18:19:07Z</time>
      </trkpt>
      <trkpt lat="56.891746768646" lon="14.833756800101">
        <ele>195.4</ele>
        <time>2020-01-13T18:19:13Z</time>
      </trkpt>
      <trkpt lat="56.891571922212" lon="14.833863417869">
        <ele>196.2</ele>
        <time>2020-01-13T18:19:19Z</time>
      </trkpt>
      <trkpt lat="56.891390621715" lon="14.833943381195">
        <ele>196.8</ele>
        <time>2020-01-13T18:19:25Z</time>
      </trkpt>
      <trkpt lat="56.891339492125" lon="14.833950002896">
        <ele>197.2</ele>
        <time>2020-01-13T18:19:27Z</time>
      </trkpt>
      <trkpt lat="56.891159532732" lon="14.833980513012">
        <ele>197.8</ele>
        <time>2020-01-13T18:19:33Z</time>
      </trkpt>
      <trkpt lat="56.890965156471" lon="14.833863417869">
        <ele>197.4</ele>
        <time>2020-01-13T18:19:39Z</time>
      </trkpt>
      <trkpt lat="56.890836661944" lon="14.833777168118">
        <ele>196</ele>
        <time>2020-01-13T18:19:43Z</time>
      </trkpt>
      <trkpt lat="56.890698612051" lon="14.833644901736">
        <ele>195</ele>
        <time>2020-01-13T18:19:48Z</time>
      </trkpt>
      <trkpt lat="56.890552431715" lon="14.833434348408">
        <ele>193.8</ele>
        <time>2020-01-13T18:19:54Z</time>
      </trkpt>
      <trkpt lat="56.890479760642" lon="14.83332018693">
        <ele>192.6</ele>
        <time>2020-01-13T18:19:57Z</time>
      </trkpt>
      <trkpt lat="56.890427876681" lon="14.833246342391">
        <ele>191.2</ele>
        <time>2020-01-13T18:20:00Z</time>
      </trkpt>
      <trkpt lat="56.890379261661" lon="14.83318523834">
        <ele>190.2</ele>
        <time>2020-01-13T18:20:02Z</time>
      </trkpt>
      <trkpt lat="56.890257724111" lon="14.832923890698">
        <ele>189.6</ele>
        <time>2020-01-13T18:20:08Z</time>
      </trkpt>
      <trkpt lat="56.890129313403" lon="14.832663800341">
        <ele>189.4</ele>
        <time>2020-01-13T18:20:13Z</time>
      </trkpt>
      <trkpt lat="56.889983971257" lon="14.832396333912">
        <ele>189.6</ele>
        <time>2020-01-13T18:20:19Z</time>
      </trkpt>
      <trkpt lat="56.889840473129" lon="14.832145798921">
        <ele>189.6</ele>
        <time>2020-01-13T18:20:24Z</time>
      </trkpt>
      <trkpt lat="56.889704853987" lon="14.831923259476">
        <ele>190.2</ele>
        <time>2020-01-13T18:20:30Z</time>
      </trkpt>
      <trkpt lat="56.889529756096" lon="14.831762578453">
        <ele>190</ele>
        <time>2020-01-13T18:20:36Z</time>
      </trkpt>
      <trkpt lat="56.889470076968" lon="14.831729553767">
        <ele>189.2</ele>
        <time>2020-01-13T18:20:38Z</time>
      </trkpt>
      <trkpt lat="56.889375864412" lon="14.831675574331">
        <ele>188.2</ele>
        <time>2020-01-13T18:20:41Z</time>
      </trkpt>
      <trkpt lat="56.889316017646" lon="14.831629473881">
        <ele>186.8</ele>
        <time>2020-01-13T18:20:43Z</time>
      </trkpt>
      <trkpt lat="56.889226918049" lon="14.831566861088">
        <ele>185.6</ele>
        <time>2020-01-13T18:20:46Z</time>
      </trkpt>
      <trkpt lat="56.889057436031" lon="14.831400480373">
        <ele>184.4</ele>
        <time>2020-01-13T18:20:51Z</time>
      </trkpt>
      <trkpt lat="56.888954673937" lon="14.831322025789">
        <ele>183</ele>
        <time>2020-01-13T18:20:54Z</time>
      </trkpt>
      <trkpt lat="56.888857443897" lon="14.831182467154">
        <ele>181.8</ele>
        <time>2020-01-13T18:20:58Z</time>
      </trkpt>
      <trkpt lat="56.888807236316" lon="14.831104264027">
        <ele>180.8</ele>
        <time>2020-01-13T18:21:00Z</time>
      </trkpt>
      <trkpt lat="56.888735487252" lon="14.831012817498">
        <ele>179.6</ele>
        <time>2020-01-13T18:21:03Z</time>
      </trkpt>
      <trkpt lat="56.888653260813" lon="14.830916425648">
        <ele>178.4</ele>
        <time>2020-01-13T18:21:06Z</time>
      </trkpt>
      <trkpt lat="56.888470535393" lon="14.830806119844">
        <ele>177.8</ele>
        <time>2020-01-13T18:21:11Z</time>
      </trkpt>
      <trkpt lat="56.888354865173" lon="14.830802096532">
        <ele>177.4</ele>
        <time>2020-01-13T18:21:15Z</time>
      </trkpt>
      <trkpt lat="56.888201057308" lon="14.830975434224">
        <ele>177.4</ele>
        <time>2020-01-13T18:21:21Z</time>
      </trkpt>
      <trkpt lat="56.888014140938" lon="14.831052547704">
        <ele>177</ele>
        <time>2020-01-13T18:21:28Z</time>
      </trkpt>
      <trkpt lat="56.887836696115" lon="14.831106778597">
        <ele>177.2</ele>
        <time>2020-01-13T18:21:34Z</time>
      </trkpt>
      <trkpt lat="56.887643074225" lon="14.831257904254">
        <ele>177</ele>
        <time>2020-01-13T18:21:40Z</time>
      </trkpt>
      <trkpt lat="56.887461689909" lon="14.831341807073">
        <ele>177.2</ele>
        <time>2020-01-13T18:21:45Z</time>
      </trkpt>
      <trkpt lat="56.887276449919" lon="14.831517491697">
        <ele>177.4</ele>
        <time>2020-01-13T18:21:52Z</time>
      </trkpt>
      <trkpt lat="56.887205371407" lon="14.831756375847">
        <ele>178.6</ele>
        <time>2020-01-13T18:21:57Z</time>
      </trkpt>
      <trkpt lat="56.887178046413" lon="14.831892414084">
        <ele>179.6</ele>
        <time>2020-01-13T18:22:00Z</time>
      </trkpt>
      <trkpt lat="56.887151894885" lon="14.832117049004">
        <ele>180.8</ele>
        <time>2020-01-13T18:22:04Z</time>
      </trkpt>
      <trkpt lat="56.887147033383" lon="14.832255098897">
        <ele>182</ele>
        <time>2020-01-13T18:22:07Z</time>
      </trkpt>
      <trkpt lat="56.887143512985" lon="14.83236884128">
        <ele>183.2</ele>
        <time>2020-01-13T18:22:10Z</time>
      </trkpt>
      <trkpt lat="56.887133706162" lon="14.832486271699">
        <ele>184.8</ele>
        <time>2020-01-13T18:22:13Z</time>
      </trkpt>
      <trkpt lat="56.887115685077" lon="14.832555925288">
        <ele>185.8</ele>
        <time>2020-01-13T18:22:15Z</time>
      </trkpt>
      <trkpt lat="56.88699221969" lon="14.832825906287">
        <ele>185.8</ele>
        <time>2020-01-13T18:22:22Z</time>
      </trkpt>
      <trkpt lat="56.886821983301" lon="14.832957921212">
        <ele>185.2</ele>
        <time>2020-01-13T18:22:28Z</time>
      </trkpt>
      <trkpt lat="56.886635486026" lon="14.83306034803">
        <ele>185</ele>
        <time>2020-01-13T18:22:34Z</time>
      </trkpt>
      <trkpt lat="56.886447563828" lon="14.833089768499">
        <ele>185.6</ele>
        <time>2020-01-13T18:22:41Z</time>
      </trkpt>
      <trkpt lat="56.886237513414" lon="14.833101670797">
        <ele>186.2</ele>
        <time>2020-01-13T18:22:47Z</time>
      </trkpt>
      <trkpt lat="56.886131817655" lon="14.83305783346">
        <ele>184.4</ele>
        <time>2020-01-13T18:22:50Z</time>
      </trkpt>
      <trkpt lat="56.886066187378" lon="14.833015337227">
        <ele>182.6</ele>
        <time>2020-01-13T18:22:52Z</time>
      </trkpt>
      <trkpt lat="56.886000138006" lon="14.832958172669">
        <ele>181.2</ele>
        <time>2020-01-13T18:22:54Z</time>
      </trkpt>
      <trkpt lat="56.885835182214" lon="14.832797240189">
        <ele>180.6</ele>
        <time>2020-01-13T18:23:00Z</time>
      </trkpt>
      <trkpt lat="56.885642063238" lon="14.83268902986">
        <ele>182</ele>
        <time>2020-01-13T18:23:08Z</time>
      </trkpt>
      <trkpt lat="56.88560333886" lon="14.832670002947">
        <ele>182.2</ele>
        <time>2020-01-13T18:23:09Z</time>
      </trkpt>
      <trkpt lat="56.885388510763" lon="14.832703949642">
        <ele>183</ele>
        <time>2020-01-13T18:23:15Z</time>
      </trkpt>
      <trkpt lat="56.885192709579" lon="14.832737561061">
        <ele>183.2</ele>
        <time>2020-01-13T18:23:22Z</time>
      </trkpt>
      <trkpt lat="56.885140406523" lon="14.832713672646">
        <ele>183.4</ele>
        <time>2020-01-13T18:23:24Z</time>
      </trkpt>
      <trkpt lat="56.884977546206" lon="14.832586435404">
        <ele>182.4</ele>
        <time>2020-01-13T18:23:30Z</time>
      </trkpt>
      <trkpt lat="56.884956088542" lon="14.832553745994">
        <ele>181.6</ele>
        <time>2020-01-13T18:23:31Z</time>
      </trkpt>
      <trkpt lat="56.88491183211" lon="14.832473447392">
        <ele>180.2</ele>
        <time>2020-01-13T18:23:33Z</time>
      </trkpt>
      <trkpt lat="56.884888949523" lon="14.832411421332">
        <ele>179</ele>
        <time>2020-01-13T18:23:35Z</time>
      </trkpt>
      <trkpt lat="56.884871682809" lon="14.832360878475">
        <ele>178</ele>
        <time>2020-01-13T18:23:37Z</time>
      </trkpt>
      <trkpt lat="56.884856176294" lon="14.832333721119">
        <ele>177.4</ele>
        <time>2020-01-13T18:23:38Z</time>
      </trkpt>
      <trkpt lat="56.88479113275" lon="14.832218972908">
        <ele>176.6</ele>
        <time>2020-01-13T18:23:41Z</time>
      </trkpt>
      <trkpt lat="56.884648724269" lon="14.831947483167">
        <ele>176.4</ele>
        <time>2020-01-13T18:23:47Z</time>
      </trkpt>
      <trkpt lat="56.884497179517" lon="14.831697199633">
        <ele>176.8</ele>
        <time>2020-01-13T18:23:53Z</time>
      </trkpt>
      <trkpt lat="56.884322249264" lon="14.831540793379">
        <ele>177.4</ele>
        <time>2020-01-13T18:23:58Z</time>
      </trkpt>
      <trkpt lat="56.88414069731" lon="14.83153819499">
        <ele>177.4</ele>
        <time>2020-01-13T18:24:03Z</time>
      </trkpt>
      <trkpt lat="56.884016058457" lon="14.83172594955">
        <ele>177.8</ele>
        <time>2020-01-13T18:24:09Z</time>
      </trkpt>
      <trkpt lat="56.883878762935" lon="14.832030547796">
        <ele>177.4</ele>
        <time>2020-01-13T18:24:16Z</time>
      </trkpt>
      <trkpt lat="56.883771223158" lon="14.832330787454">
        <ele>177.8</ele>
        <time>2020-01-13T18:24:23Z</time>
      </trkpt>
      <trkpt lat="56.883632921808" lon="14.832557182573">
        <ele>177.2</ele>
        <time>2020-01-13T18:24:29Z</time>
      </trkpt>
      <trkpt lat="56.883552790844" lon="14.832641755944">
        <ele>176.6</ele>
        <time>2020-01-13T18:24:32Z</time>
      </trkpt>
      <trkpt lat="56.883386996862" lon="14.832793300696">
        <ele>177.2</ele>
        <time>2020-01-13T18:24:38Z</time>
      </trkpt>
      <trkpt lat="56.883239307784" lon="14.833005530404">
        <ele>177.2</ele>
        <time>2020-01-13T18:24:44Z</time>
      </trkpt>
      <trkpt lat="56.883185076891" lon="14.833228740401">
        <ele>177.2</ele>
        <time>2020-01-13T18:24:49Z</time>
      </trkpt>
      <trkpt lat="56.883216928111" lon="14.833411214364">
        <ele>177.6</ele>
        <time>2020-01-13T18:24:52Z</time>
      </trkpt>
      <trkpt lat="56.883315331617" lon="14.833565692781">
        <ele>179.2</ele>
        <time>2020-01-13T18:24:56Z</time>
      </trkpt>
      <trkpt lat="56.883377609134" lon="14.833643057718">
        <ele>180.2</ele>
        <time>2020-01-13T18:24:58Z</time>
      </trkpt>
      <trkpt lat="56.88348942368" lon="14.833764595268">
        <ele>181.2</ele>
        <time>2020-01-13T18:25:02Z</time>
      </trkpt>
      <trkpt lat="56.883671227091" lon="14.833920079513">
        <ele>181.8</ele>
        <time>2020-01-13T18:25:08Z</time>
      </trkpt>
      <trkpt lat="56.883838613634" lon="14.834062152718">
        <ele>181.6</ele>
        <time>2020-01-13T18:25:14Z</time>
      </trkpt>
      <trkpt lat="56.88400826329" lon="14.834228365795">
        <ele>181.2</ele>
        <time>2020-01-13T18:25:21Z</time>
      </trkpt>
      <trkpt lat="56.884187049217" lon="14.834372534475">
        <ele>180.2</ele>
        <time>2020-01-13T18:25:27Z</time>
      </trkpt>
      <trkpt lat="56.884358291434" lon="14.834612256815">
        <ele>180.6</ele>
        <time>2020-01-13T18:25:33Z</time>
      </trkpt>
      <trkpt lat="56.884464573926" lon="14.834929260273">
        <ele>181.4</ele>
        <time>2020-01-13T18:25:40Z</time>
      </trkpt>
      <trkpt lat="56.884550739858" lon="14.835193625399">
        <ele>182.6</ele>
        <time>2020-01-13T18:25:45Z</time>
      </trkpt>
      <trkpt lat="56.884652496124" lon="14.83548020256">
        <ele>183.2</ele>
        <time>2020-01-13T18:25:50Z</time>
      </trkpt>
      <trkpt lat="56.884708822492" lon="14.83561515115">
        <ele>183.6</ele>
        <time>2020-01-13T18:25:54Z</time>
      </trkpt>
      <trkpt lat="56.884743188282" lon="14.835671728975">
        <ele>185</ele>
        <time>2020-01-13T18:25:56Z</time>
      </trkpt>
      <trkpt lat="56.884793312044" lon="14.835723026203">
        <ele>186.6</ele>
        <time>2020-01-13T18:25:58Z</time>
      </trkpt>
      <trkpt lat="56.884873107732" lon="14.835761499124">
        <ele>187.8</ele>
        <time>2020-01-13T18:26:01Z</time>
      </trkpt>
      <trkpt lat="56.885052815668" lon="14.835758230183">
        <ele>188.2</ele>
        <time>2020-01-13T18:26:07Z</time>
      </trkpt>
      <trkpt lat="56.885230847224" lon="14.835685810567">
        <ele>187.6</ele>
        <time>2020-01-13T18:26:12Z</time>
      </trkpt>
      <trkpt lat="56.885410303703" lon="14.8355941964">
        <ele>187</ele>
        <time>2020-01-13T18:26:18Z</time>
      </trkpt>
      <trkpt lat="56.8856251318" lon="14.835479112913">
        <ele>187</ele>
        <time>2020-01-13T18:26:24Z</time>
      </trkpt>
      <trkpt lat="56.885692689914" lon="14.835444328028">
        <ele>186.8</ele>
        <time>2020-01-13T18:26:26Z</time>
      </trkpt>
      <trkpt lat="56.885867787805" lon="14.835364616159">
        <ele>186.6</ele>
        <time>2020-01-13T18:26:32Z</time>
      </trkpt>
      <trkpt lat="56.885914726445" lon="14.835355396069">
        <ele>187.8</ele>
        <time>2020-01-13T18:26:34Z</time>
      </trkpt>
      <trkpt lat="56.886001814386" lon="14.835352378585">
        <ele>188.8</ele>
        <time>2020-01-13T18:26:37Z</time>
      </trkpt>
      <trkpt lat="56.886206248927" lon="14.83535363587">
        <ele>189.8</ele>
        <time>2020-01-13T18:26:43Z</time>
      </trkpt>
      <trkpt lat="56.886378916067" lon="14.835509874486">
        <ele>190</ele>
        <time>2020-01-13T18:26:49Z</time>
      </trkpt>
      <trkpt lat="56.886507242956" lon="14.835787147738">
        <ele>190.4</ele>
        <time>2020-01-13T18:26:55Z</time>
      </trkpt>
      <trkpt lat="56.886609334498" lon="14.836098870599">
        <ele>191</ele>
        <time>2020-01-13T18:27:01Z</time>
      </trkpt>
      <trkpt lat="56.886650657265" lon="14.836331887419">
        <ele>192.2</ele>
        <time>2020-01-13T18:27:05Z</time>
      </trkpt>
      <trkpt lat="56.886717712465" lon="14.836707647996">
        <ele>191.2</ele>
        <time>2020-01-13T18:27:10Z</time>
      </trkpt>
      <trkpt lat="56.88676674658" lon="14.836907556311">
        <ele>189.8</ele>
        <time>2020-01-13T18:27:13Z</time>
      </trkpt>
      <trkpt lat="56.886856600548" lon="14.837234198954">
        <ele>189.2</ele>
        <time>2020-01-13T18:27:19Z</time>
      </trkpt>
      <trkpt lat="56.886941425376" lon="14.837558159389">
        <ele>190.2</ele>
        <time>2020-01-13T18:27:25Z</time>
      </trkpt>
      <trkpt lat="56.887004289626" lon="14.837753457659">
        <ele>191</ele>
        <time>2020-01-13T18:27:29Z</time>
      </trkpt>
      <trkpt lat="56.887045193298" lon="14.837868792603">
        <ele>192.2</ele>
        <time>2020-01-13T18:27:32Z</time>
      </trkpt>
      <trkpt lat="56.887098502182" lon="14.837993515275">
        <ele>193.2</ele>
        <time>2020-01-13T18:27:35Z</time>
      </trkpt>
      <trkpt lat="56.887118367285" lon="14.838041124467">
        <ele>193.4</ele>
        <time>2020-01-13T18:27:36Z</time>
      </trkpt>
      <trkpt lat="56.887280054136" lon="14.83829819734">
        <ele>193.4</ele>
        <time>2020-01-13T18:27:42Z</time>
      </trkpt>
      <trkpt lat="56.887417768753" lon="14.838580415913">
        <ele>193.6</ele>
        <time>2020-01-13T18:27:48Z</time>
      </trkpt>
      <trkpt lat="56.887552633524" lon="14.838824161565">
        <ele>193.6</ele>
        <time>2020-01-13T18:27:53Z</time>
      </trkpt>
      <trkpt lat="56.887697221299" lon="14.839093220555">
        <ele>193.6</ele>
        <time>2020-01-13T18:27:59Z</time>
      </trkpt>
      <trkpt lat="56.887813562071" lon="14.839363788287">
        <ele>194</ele>
        <time>2020-01-13T18:28:05Z</time>
      </trkpt>
      <trkpt lat="56.887940380218" lon="14.839673415673">
        <ele>194</ele>
        <time>2020-01-13T18:28:11Z</time>
      </trkpt>
      <trkpt lat="56.888006681047" lon="14.840024449645">
        <ele>193.4</ele>
        <time>2020-01-13T18:28:17Z</time>
      </trkpt>
      <trkpt lat="56.888056972447" lon="14.840362324034">
        <ele>194.2</ele>
        <time>2020-01-13T18:28:23Z</time>
      </trkpt>
      <trkpt lat="56.888072562781" lon="14.840469696173">
        <ele>194.6</ele>
        <time>2020-01-13T18:28:25Z</time>
      </trkpt>
      <trkpt lat="56.888160488912" lon="14.840805475087">
        <ele>195.4</ele>
        <time>2020-01-13T18:28:31Z</time>
      </trkpt>
      <trkpt lat="56.88823274089" lon="14.840968754499">
        <ele>195.8</ele>
        <time>2020-01-13T18:28:35Z</time>
      </trkpt>
      <trkpt lat="56.888371545154" lon="14.841111833532">
        <ele>196.8</ele>
        <time>2020-01-13T18:28:41Z</time>
      </trkpt>
      <trkpt lat="56.888560389361" lon="14.841065397806">
        <ele>197</ele>
        <time>2020-01-13T18:28:48Z</time>
      </trkpt>
      <trkpt lat="56.888764572445" lon="14.840949476129">
        <ele>197</ele>
        <time>2020-01-13T18:28:54Z</time>
      </trkpt>
      <trkpt lat="56.888864568512" lon="14.840909745923">
        <ele>195.4</ele>
        <time>2020-01-13T18:28:57Z</time>
      </trkpt>
      <trkpt lat="56.8889359823" lon="14.840890886648">
        <ele>193.8</ele>
        <time>2020-01-13T18:28:59Z</time>
      </trkpt>
      <trkpt lat="56.888991805754" lon="14.84088401349">
        <ele>192.2</ele>
        <time>2020-01-13T18:29:01Z</time>
      </trkpt>
      <trkpt lat="56.889083252283" lon="14.840839086506">
        <ele>191.2</ele>
        <time>2020-01-13T18:29:04Z</time>
      </trkpt>
      <trkpt lat="56.889271677395" lon="14.840714531472">
        <ele>191.4</ele>
        <time>2020-01-13T18:29:11Z</time>
      </trkpt>
      <trkpt lat="56.889423557423" lon="14.840611769378">
        <ele>189.6</ele>
        <time>2020-01-13T18:29:16Z</time>
      </trkpt>
      <trkpt lat="56.889600499332" lon="14.840468355069">
        <ele>190.4</ele>
        <time>2020-01-13T18:29:23Z</time>
      </trkpt>
      <trkpt lat="56.889760677441" lon="14.840322090914">
        <ele>190</ele>
        <time>2020-01-13T18:29:28Z</time>
      </trkpt>
      <trkpt lat="56.889901409542" lon="14.840221340476">
        <ele>190.8</ele>
        <time>2020-01-13T18:29:33Z</time>
      </trkpt>
      <trkpt lat="56.890045242946" lon="14.840130313042">
        <ele>191.8</ele>
        <time>2020-01-13T18:29:39Z</time>
      </trkpt>
      <trkpt lat="56.890195530413" lon="14.84003576521">
        <ele>193</ele>
        <time>2020-01-13T18:29:45Z</time>
      </trkpt>
      <trkpt lat="56.8903776691" lon="14.839953538771">
        <ele>192.4</ele>
        <time>2020-01-13T18:29:51Z</time>
      </trkpt>
      <trkpt lat="56.890581097813" lon="14.839872485798">
        <ele>193.8</ele>
        <time>2020-01-13T18:29:58Z</time>
      </trkpt>
      <trkpt lat="56.890750747469" lon="14.839755893569">
        <ele>193.6</ele>
        <time>2020-01-13T18:30:03Z</time>
      </trkpt>
      <trkpt lat="56.890937244744" lon="14.839631925268">
        <ele>193.4</ele>
        <time>2020-01-13T18:30:09Z</time>
      </trkpt>
      <trkpt lat="56.89110270345" lon="14.839450792409">
        <ele>193.2</ele>
        <time>2020-01-13T18:30:15Z</time>
      </trkpt>
      <trkpt lat="56.89125609222" lon="14.839209058413">
        <ele>191.8</ele>
        <time>2020-01-13T18:30:22Z</time>
      </trkpt>
      <trkpt lat="56.891325745809" lon="14.839121886653">
        <ele>190.2</ele>
        <time>2020-01-13T18:30:25Z</time>
      </trkpt>
      <trkpt lat="56.891450887576" lon="14.839033206151">
        <ele>189.2</ele>
        <time>2020-01-13T18:30:28Z</time>
      </trkpt>
      <trkpt lat="56.891625231096" lon="14.838980400181">
        <ele>189</ele>
        <time>2020-01-13T18:30:35Z</time>
      </trkpt>
      <trkpt lat="56.891825139411" lon="14.83895450011">
        <ele>189</ele>
        <time>2020-01-13T18:30:41Z</time>
      </trkpt>
      <trkpt lat="56.89206159281" lon="14.838854084948">
        <ele>188.6</ele>
        <time>2020-01-13T18:30:48Z</time>
      </trkpt>
      <trkpt lat="56.892223447299" lon="14.838710419182">
        <ele>189.2</ele>
        <time>2020-01-13T18:30:53Z</time>
      </trkpt>
      <trkpt lat="56.892388067815" lon="14.838555102575">
        <ele>189</ele>
        <time>2020-01-13T18:30:58Z</time>
      </trkpt>
      <trkpt lat="56.892553107426" lon="14.838340609754">
        <ele>188.6</ele>
        <time>2020-01-13T18:31:04Z</time>
      </trkpt>
      <trkpt lat="56.892630556182" lon="14.838216389996">
        <ele>188</ele>
        <time>2020-01-13T18:31:07Z</time>
      </trkpt>
      <trkpt lat="56.892783190581" lon="14.838000556071">
        <ele>188</ele>
        <time>2020-01-13T18:31:12Z</time>
      </trkpt>
      <trkpt lat="56.892934483876" lon="14.837751278365">
        <ele>188.6</ele>
        <time>2020-01-13T18:31:19Z</time>
      </trkpt>
      <trkpt lat="56.89307915547" lon="14.837523290685">
        <ele>189</ele>
        <time>2020-01-13T18:31:25Z</time>
      </trkpt>
      <trkpt lat="56.893100194039" lon="14.837503677039">
        <ele>189</ele>
        <time>2020-01-13T18:31:26Z</time>
      </trkpt>
      <trkpt lat="56.893257354664" lon="14.837288262209">
        <ele>189.4</ele>
        <time>2020-01-13T18:31:33Z</time>
      </trkpt>
      <trkpt lat="56.893367911925" lon="14.83699900284">
        <ele>188</ele>
        <time>2020-01-13T18:31:40Z</time>
      </trkpt>
      <trkpt lat="56.893507219103" lon="14.836866401182">
        <ele>187.8</ele>
        <time>2020-01-13T18:31:44Z</time>
      </trkpt>
      <trkpt lat="56.893698242604" lon="14.836686860884">
        <ele>188</ele>
        <time>2020-01-13T18:31:50Z</time>
      </trkpt>
      <trkpt lat="56.89386873045" lon="14.836456107177">
        <ele>188</ele>
        <time>2020-01-13T18:31:56Z</time>
      </trkpt>
      <trkpt lat="56.89401289913" lon="14.836258378156">
        <ele>187.6</ele>
        <time>2020-01-13T18:32:01Z</time>
      </trkpt>
      <trkpt lat="56.894191936514" lon="14.836132482018">
        <ele>187.6</ele>
        <time>2020-01-13T18:32:08Z</time>
      </trkpt>
      <trkpt lat="56.894369632794" lon="14.836066348827">
        <ele>187.8</ele>
        <time>2020-01-13T18:32:14Z</time>
      </trkpt>
      <trkpt lat="56.894555459517" lon="14.83596048543">
        <ele>188.2</ele>
        <time>2020-01-13T18:32:21Z</time>
      </trkpt>
      <trkpt lat="56.894745896285" lon="14.835824028098">
        <ele>187.6</ele>
        <time>2020-01-13T18:32:28Z</time>
      </trkpt>
      <trkpt lat="56.894915545941" lon="14.835677847762">
        <ele>187.6</ele>
        <time>2020-01-13T18:32:33Z</time>
      </trkpt>
      <trkpt lat="56.895089386547" lon="14.835535271643">
        <ele>187.6</ele>
        <time>2020-01-13T18:32:39Z</time>
      </trkpt>
      <trkpt lat="56.895283846627" lon="14.835463187303">
        <ele>187.6</ele>
        <time>2020-01-13T18:32:46Z</time>
      </trkpt>
      <trkpt lat="56.895474031938" lon="14.835463606398">
        <ele>188.4</ele>
        <time>2020-01-13T18:32:54Z</time>
      </trkpt>
      <trkpt lat="56.895564221182" lon="14.835454973041">
        <ele>189</ele>
        <time>2020-01-13T18:32:57Z</time>
      </trkpt>
      <trkpt lat="56.895646699078" lon="14.835428067142">
        <ele>190.4</ele>
        <time>2020-01-13T18:33:00Z</time>
      </trkpt>
      <trkpt lat="56.895730015164" lon="14.835375596448">
        <ele>191</ele>
        <time>2020-01-13T18:33:03Z</time>
      </trkpt>
      <trkpt lat="56.895937802465" lon="14.835270906517">
        <ele>190.6</ele>
        <time>2020-01-13T18:33:09Z</time>
      </trkpt>
      <trkpt lat="56.896081468231" lon="14.835192535752">
        <ele>189.4</ele>
        <time>2020-01-13T18:33:13Z</time>
      </trkpt>
      <trkpt lat="56.896186661076" lon="14.835164959301">
        <ele>188.2</ele>
        <time>2020-01-13T18:33:17Z</time>
      </trkpt>
      <trkpt lat="56.896373325989" lon="14.835159008152">
        <ele>187.8</ele>
        <time>2020-01-13T18:33:23Z</time>
      </trkpt>
      <trkpt lat="56.896559739445" lon="14.835147776406">
        <ele>188.2</ele>
        <time>2020-01-13T18:33:29Z</time>
      </trkpt>
      <trkpt lat="56.896752523145" lon="14.835137047574">
        <ele>188.4</ele>
        <time>2020-01-13T18:33:35Z</time>
      </trkpt>
      <trkpt lat="56.896931057615" lon="14.835264368635">
        <ele>188.4</ele>
        <time>2020-01-13T18:33:42Z</time>
      </trkpt>
      <trkpt lat="56.897120991469" lon="14.83542991116">
        <ele>189</ele>
        <time>2020-01-13T18:33:48Z</time>
      </trkpt>
      <trkpt lat="56.897190812696" lon="14.835457487611">
        <ele>189.4</ele>
        <time>2020-01-13T18:33:50Z</time>
      </trkpt>
      <trkpt lat="56.897369933899" lon="14.835510042124">
        <ele>190</ele>
        <time>2020-01-13T18:33:55Z</time>
      </trkpt>
      <trkpt lat="56.897494153657" lon="14.835533176168">
        <ele>190.4</ele>
        <time>2020-01-13T18:33:59Z</time>
      </trkpt>
      <trkpt lat="56.897689535746" lon="14.835557651316">
        <ele>191</ele>
        <time>2020-01-13T18:34:05Z</time>
      </trkpt>
      <trkpt lat="56.897872093528" lon="14.835453799575">
        <ele>189.6</ele>
        <time>2020-01-13T18:34:11Z</time>
      </trkpt>
      <trkpt lat="56.897902268368" lon="14.835434353567">
        <ele>189.4</ele>
        <time>2020-01-13T18:34:12Z</time>
      </trkpt>
      <trkpt lat="56.898070912196" lon="14.835307619239">
        <ele>188.4</ele>
        <time>2020-01-13T18:34:17Z</time>
      </trkpt>
      <trkpt lat="56.89811583918" lon="14.835249867948">
        <ele>188.2</ele>
        <time>2020-01-13T18:34:19Z</time>
      </trkpt>
      <trkpt lat="56.898244333707" lon="14.835106621277">
        <ele>186.8</ele>
        <time>2020-01-13T18:34:24Z</time>
      </trkpt>
      <trkpt lat="56.898429406059" lon="14.83492699716">
        <ele>186.2</ele>
        <time>2020-01-13T18:34:31Z</time>
      </trkpt>
      <trkpt lat="56.898624117596" lon="14.834838903391">
        <ele>186</ele>
        <time>2020-01-13T18:34:37Z</time>
      </trkpt>
      <trkpt lat="56.898648257468" lon="14.834818116279">
        <ele>185.8</ele>
        <time>2020-01-13T18:34:38Z</time>
      </trkpt>
      <trkpt lat="56.898849339249" lon="14.834942419856">
        <ele>185</ele>
        <time>2020-01-13T18:34:44Z</time>
      </trkpt>
      <trkpt lat="56.898881861021" lon="14.834992962713">
        <ele>184.6</ele>
        <time>2020-01-13T18:34:45Z</time>
      </trkpt>
      <trkpt lat="56.899027370805" lon="14.835266883205">
        <ele>183.8</ele>
        <time>2020-01-13T18:34:50Z</time>
      </trkpt>
      <trkpt lat="56.899051762134" lon="14.835311894008">
        <ele>183.6</ele>
        <time>2020-01-13T18:34:51Z</time>
      </trkpt>
      <trkpt lat="56.89922560274" lon="14.835528985218">
        <ele>183</ele>
        <time>2020-01-13T18:34:57Z</time>
      </trkpt>
      <trkpt lat="56.899311684853" lon="14.835565111207">
        <ele>182.6</ele>
        <time>2020-01-13T18:35:00Z</time>
      </trkpt>
      <trkpt lat="56.89947873612" lon="14.835436868137">
        <ele>182.2</ele>
        <time>2020-01-13T18:35:06Z</time>
      </trkpt>
      <trkpt lat="56.899641009704" lon="14.835257076382">
        <ele>182.2</ele>
        <time>2020-01-13T18:35:12Z</time>
      </trkpt>
      <trkpt lat="56.899777802312" lon="14.835040823362">
        <ele>181.6</ele>
        <time>2020-01-13T18:35:18Z</time>
      </trkpt>
      <trkpt lat="56.899808815342" lon="14.835007295762">
        <ele>181.2</ele>
        <time>2020-01-13T18:35:19Z</time>
      </trkpt>
      <trkpt lat="56.899975950428" lon="14.834860696331">
        <ele>181.2</ele>
        <time>2020-01-13T18:35:25Z</time>
      </trkpt>
      <trkpt lat="56.900098829082" lon="14.834774949494">
        <ele>182.4</ele>
        <time>2020-01-13T18:35:29Z</time>
      </trkpt>
      <trkpt lat="56.900287840927" lon="14.834615441937">
        <ele>183</ele>
        <time>2020-01-13T18:35:35Z</time>
      </trkpt>
      <trkpt lat="56.900486324319" lon="14.834494072025">
        <ele>182.6</ele>
        <time>2020-01-13T18:35:41Z</time>
      </trkpt>
      <trkpt lat="56.90065471669" lon="14.834353004648">
        <ele>182.8</ele>
        <time>2020-01-13T18:35:47Z</time>
      </trkpt>
      <trkpt lat="56.900750018893" lon="14.834059805786">
        <ele>182</ele>
        <time>2020-01-13T18:35:53Z</time>
      </trkpt>
      <trkpt lat="56.900774410222" lon="14.833700641371">
        <ele>181.6</ele>
        <time>2020-01-13T18:35:59Z</time>
      </trkpt>
      <trkpt lat="56.900708277031" lon="14.833345164992">
        <ele>181.6</ele>
        <time>2020-01-13T18:36:05Z</time>
      </trkpt>
      <trkpt lat="56.900573076984" lon="14.833059006926">
        <ele>181.6</ele>
        <time>2020-01-13T18:36:11Z</time>
      </trkpt>
      <trkpt lat="56.900499567721" lon="14.832944426353">
        <ele>181.4</ele>
        <time>2020-01-13T18:36:14Z</time>
      </trkpt>
      <trkpt lat="56.900336120671" lon="14.832771759213">
        <ele>181.8</ele>
        <time>2020-01-13T18:36:20Z</time>
      </trkpt>
      <trkpt lat="56.900282727968" lon="14.83272926298">
        <ele>182.6</ele>
        <time>2020-01-13T18:36:22Z</time>
      </trkpt>
      <trkpt lat="56.90010737862" lon="14.832599762625">
        <ele>182.4</ele>
        <time>2020-01-13T18:36:28Z</time>
      </trkpt>
      <trkpt lat="56.899943177199" lon="14.832508064639">
        <ele>183.6</ele>
        <time>2020-01-13T18:36:35Z</time>
      </trkpt>
      <trkpt lat="56.899780819796" lon="14.83237387042">
        <ele>184.8</ele>
        <time>2020-01-13T18:36:41Z</time>
      </trkpt>
      <trkpt lat="56.899626173741" lon="14.832161053979">
        <ele>185.2</ele>
        <time>2020-01-13T18:36:47Z</time>
      </trkpt>
      <trkpt lat="56.899593651969" lon="14.831924013847">
        <ele>186</ele>
        <time>2020-01-13T18:36:51Z</time>
      </trkpt>
      <trkpt lat="56.899581917309" lon="14.831799542632">
        <ele>187.4</ele>
        <time>2020-01-13T18:36:53Z</time>
      </trkpt>
      <trkpt lat="56.899532464099" lon="14.831585804182">
        <ele>188.4</ele>
        <time>2020-01-13T18:36:57Z</time>
      </trkpt>
      <trkpt lat="56.89943347386" lon="14.831269890371">
        <ele>189.6</ele>
        <time>2020-01-13T18:37:03Z</time>
      </trkpt>
      <trkpt lat="56.899337836381" lon="14.830979876631">
        <ele>189.4</ele>
        <time>2020-01-13T18:37:09Z</time>
      </trkpt>
      <trkpt lat="56.899276899968" lon="14.830649210676">
        <ele>188</ele>
        <time>2020-01-13T18:37:15Z</time>
      </trkpt>
      <trkpt lat="56.899227027663" lon="14.830506550738">
        <ele>186.8</ele>
        <time>2020-01-13T18:37:18Z</time>
      </trkpt>
      <trkpt lat="56.899163911956" lon="14.830360118945">
        <ele>185.8</ele>
        <time>2020-01-13T18:37:21Z</time>
      </trkpt>
      <trkpt lat="56.899100963887" lon="14.830230953866">
        <ele>184.8</ele>
        <time>2020-01-13T18:37:24Z</time>
      </trkpt>
      <trkpt lat="56.898995351947" lon="14.830089718851">
        <ele>185.8</ele>
        <time>2020-01-13T18:37:29Z</time>
      </trkpt>
      <trkpt lat="56.898977163224" lon="14.830070440481">
        <ele>184.2</ele>
        <time>2020-01-13T18:37:30Z</time>
      </trkpt>
      <trkpt lat="56.898900468839" lon="14.829990728612">
        <ele>182.6</ele>
        <time>2020-01-13T18:37:33Z</time>
      </trkpt>
      <trkpt lat="56.898702823637" lon="14.829865922121">
        <ele>182.4</ele>
        <time>2020-01-13T18:37:39Z</time>
      </trkpt>
      <trkpt lat="56.898568126504" lon="14.829881344817">
        <ele>181.6</ele>
        <time>2020-01-13T18:37:44Z</time>
      </trkpt>
      <trkpt lat="56.898416581752" lon="14.830105225366">
        <ele>182.2</ele>
        <time>2020-01-13T18:37:51Z</time>
      </trkpt>
      <trkpt lat="56.898367715275" lon="14.830185943063">
        <ele>182.8</ele>
        <time>2020-01-13T18:37:53Z</time>
      </trkpt>
      <trkpt lat="56.898225558251" lon="14.830314772866">
        <ele>183.8</ele>
        <time>2020-01-13T18:37:58Z</time>
      </trkpt>
      <trkpt lat="56.898059848088" lon="14.830446620153">
        <ele>184.8</ele>
        <time>2020-01-13T18:38:03Z</time>
      </trkpt>
      <trkpt lat="56.898026571945" lon="14.830489200205">
        <ele>184.8</ele>
        <time>2020-01-13T18:38:04Z</time>
      </trkpt>
      <trkpt lat="56.897846444914" lon="14.830678463507">
        <ele>185</ele>
        <time>2020-01-13T18:38:10Z</time>
      </trkpt>
      <trkpt lat="56.897681153846" lon="14.830828331879">
        <ele>185.6</ele>
        <time>2020-01-13T18:38:15Z</time>
      </trkpt>
      <trkpt lat="56.897647123332" lon="14.830857417072">
        <ele>186</ele>
        <time>2020-01-13T18:38:16Z</time>
      </trkpt>
      <trkpt lat="56.897465152283" lon="14.830984570495">
        <ele>187</ele>
        <time>2020-01-13T18:38:22Z</time>
      </trkpt>
      <trkpt lat="56.897304219803" lon="14.831150867391">
        <ele>187.2</ele>
        <time>2020-01-13T18:38:28Z</time>
      </trkpt>
      <trkpt lat="56.897123925134" lon="14.831252288381">
        <ele>187.4</ele>
        <time>2020-01-13T18:38:34Z</time>
      </trkpt>
      <trkpt lat="56.89695829879" lon="14.83140157002">
        <ele>186.6</ele>
        <time>2020-01-13T18:38:40Z</time>
      </trkpt>
      <trkpt lat="56.896805832029" lon="14.831624360922">
        <ele>186.2</ele>
        <time>2020-01-13T18:38:46Z</time>
      </trkpt>
      <trkpt lat="56.896619921487" lon="14.831803733582">
        <ele>186.6</ele>
        <time>2020-01-13T18:38:53Z</time>
      </trkpt>
      <trkpt lat="56.896450523288" lon="14.831916470137">
        <ele>186.8</ele>
        <time>2020-01-13T18:38:59Z</time>
      </trkpt>
      <trkpt lat="56.896274419569" lon="14.832055190582">
        <ele>186.8</ele>
        <time>2020-01-13T18:39:05Z</time>
      </trkpt>
      <trkpt lat="56.89607400834" lon="14.832150995699">
        <ele>186.6</ele>
        <time>2020-01-13T18:39:12Z</time>
      </trkpt>
      <trkpt lat="56.895877285147" lon="14.832230204654">
        <ele>186.2</ele>
        <time>2020-01-13T18:39:18Z</time>
      </trkpt>
      <trkpt lat="56.895696906659" lon="14.832351658385">
        <ele>186.4</ele>
        <time>2020-01-13T18:39:24Z</time>
      </trkpt>
      <trkpt lat="56.895539494577" lon="14.832526337181">
        <ele>186.6</ele>
        <time>2020-01-13T18:39:30Z</time>
      </trkpt>
      <trkpt lat="56.895360541012" lon="14.832643180867">
        <ele>187.4</ele>
        <time>2020-01-13T18:39:36Z</time>
      </trkpt>
      <trkpt lat="56.895140180861" lon="14.832653490604">
        <ele>185.8</ele>
        <time>2020-01-13T18:39:43Z</time>
      </trkpt>
      <trkpt lat="56.894991988869" lon="14.832650808396">
        <ele>184.8</ele>
        <time>2020-01-13T18:39:47Z</time>
      </trkpt>
      <trkpt lat="56.894789482165" lon="14.832755414508">
        <ele>184.2</ele>
        <time>2020-01-13T18:39:53Z</time>
      </trkpt>
      <trkpt lat="56.894641038716" lon="14.83300083654">
        <ele>184.6</ele>
        <time>2020-01-13T18:40:00Z</time>
      </trkpt>
      <trkpt lat="56.894481195883" lon="14.833229410953">
        <ele>185.6</ele>
        <time>2020-01-13T18:40:07Z</time>
      </trkpt>
      <trkpt lat="56.894307271458" lon="14.833456979538">
        <ele>185.6</ele>
        <time>2020-01-13T18:40:14Z</time>
      </trkpt>
      <trkpt lat="56.894280114102" lon="14.833486400007">
        <ele>185.8</ele>
        <time>2020-01-13T18:40:15Z</time>
      </trkpt>
      <trkpt lat="56.894095963759" lon="14.833659821518">
        <ele>186.6</ele>
        <time>2020-01-13T18:40:21Z</time>
      </trkpt>
      <trkpt lat="56.89399362076" lon="14.833731989677">
        <ele>186.8</ele>
        <time>2020-01-13T18:40:24Z</time>
      </trkpt>
      <trkpt lat="56.893798825404" lon="14.83376861858">
        <ele>186.4</ele>
        <time>2020-01-13T18:40:30Z</time>
      </trkpt>
      <trkpt lat="56.893618195459" lon="14.83370323976">
        <ele>186.4</ele>
        <time>2020-01-13T18:40:37Z</time>
      </trkpt>
      <trkpt lat="56.89346723744" lon="14.83354230728">
        <ele>188.2</ele>
        <time>2020-01-13T18:40:44Z</time>
      </trkpt>
      <trkpt lat="56.893381574422" lon="14.833457398633">
        <ele>189.4</ele>
        <time>2020-01-13T18:40:48Z</time>
      </trkpt>
      <trkpt lat="56.893213349689" lon="14.833340806404">
        <ele>189.8</ele>
        <time>2020-01-13T18:40:53Z</time>
      </trkpt>
      <trkpt lat="56.893005646207" lon="14.833324126423">
        <ele>190</ele>
        <time>2020-01-13T18:40:59Z</time>
      </trkpt>
      <trkpt lat="56.892816885819" lon="14.833430744191">
        <ele>190.4</ele>
        <time>2020-01-13T18:41:07Z</time>
      </trkpt>
      <trkpt lat="56.892789812282" lon="14.83343418077">
        <ele>190.4</ele>
        <time>2020-01-13T18:41:08Z</time>
      </trkpt>
      <trkpt lat="56.892604404654" lon="14.833457733909">
        <ele>191</ele>
        <time>2020-01-13T18:41:14Z</time>
      </trkpt>
      <trkpt lat="56.892482448009" lon="14.833456476624">
        <ele>191.6</ele>
        <time>2020-01-13T18:41:18Z</time>
      </trkpt>
      <trkpt lat="56.892316486389" lon="14.833549599533">
        <ele>192.8</ele>
        <time>2020-01-13T18:41:24Z</time>
      </trkpt>
      <trkpt lat="56.892257393994" lon="14.833573823224">
        <ele>193.8</ele>
        <time>2020-01-13T18:41:26Z</time>
      </trkpt>
      <trkpt lat="56.892197211952" lon="14.83358505497">
        <ele>195</ele>
        <time>2020-01-13T18:41:28Z</time>
      </trkpt>
      <trkpt lat="56.89199705218" lon="14.833603327512">
        <ele>195.6</ele>
        <time>2020-01-13T18:41:33Z</time>
      </trkpt>
      <trkpt lat="56.891795970399" lon="14.833731486763">
        <ele>194.6</ele>
        <time>2020-01-13T18:41:39Z</time>
      </trkpt>
      <trkpt lat="56.891615256635" lon="14.833825364043">
        <ele>195</ele>
        <time>2020-01-13T18:41:45Z</time>
      </trkpt>
      <trkpt lat="56.891424484591" lon="14.833912619622">
        <ele>195.8</ele>
        <time>2020-01-13T18:41:51Z</time>
      </trkpt>
      <trkpt lat="56.891343515437" lon="14.833972466388">
        <ele>196.2</ele>
        <time>2020-01-13T18:41:54Z</time>
      </trkpt>
      <trkpt lat="56.891191719228" lon="14.834015800811">
        <ele>197.4</ele>
        <time>2020-01-13T18:41:59Z</time>
      </trkpt>
      <trkpt lat="56.890991643275" lon="14.833928461413">
        <ele>196.4</ele>
        <time>2020-01-13T18:42:06Z</time>
      </trkpt>
      <trkpt lat="56.890962390444" lon="14.833913206355">
        <ele>196</ele>
        <time>2020-01-13T18:42:07Z</time>
      </trkpt>
      <trkpt lat="56.890838925057" lon="14.833827962432">
        <ele>194.8</ele>
        <time>2020-01-13T18:42:12Z</time>
      </trkpt>
      <trkpt lat="56.890696600395" lon="14.833682787924">
        <ele>193.8</ele>
        <time>2020-01-13T18:42:18Z</time>
      </trkpt>
      <trkpt lat="56.890523095065" lon="14.833464858524">
        <ele>192.6</ele>
        <time>2020-01-13T18:42:24Z</time>
      </trkpt>
      <trkpt lat="56.890443299377" lon="14.833338208015">
        <ele>191</ele>
        <time>2020-01-13T18:42:27Z</time>
      </trkpt>
      <trkpt lat="56.890347158984" lon="14.833161014649">
        <ele>189.4</ele>
        <time>2020-01-13T18:42:31Z</time>
      </trkpt>
      <trkpt lat="56.890270716056" lon="14.83301676215">
        <ele>188.4</ele>
        <time>2020-01-13T18:42:34Z</time>
      </trkpt>
      <trkpt lat="56.890138365855" lon="14.832731358455">
        <ele>187.8</ele>
        <time>2020-01-13T18:42:41Z</time>
      </trkpt>
      <trkpt lat="56.889999980686" lon="14.832494485961">
        <ele>188.4</ele>
        <time>2020-01-13T18:42:47Z</time>
      </trkpt>
      <trkpt lat="56.889873833091" lon="14.832246549359">
        <ele>188.6</ele>
        <time>2020-01-13T18:42:53Z</time>
      </trkpt>
      <trkpt lat="56.889707368557" lon="14.83202518338">
        <ele>188.2</ele>
        <time>2020-01-13T18:42:59Z</time>
      </trkpt>
      <trkpt lat="56.889637128235" lon="14.831914207024">
        <ele>189.4</ele>
        <time>2020-01-13T18:43:02Z</time>
      </trkpt>
      <trkpt lat="56.889473094452" lon="14.831767523774">
        <ele>188.4</ele>
        <time>2020-01-13T18:43:07Z</time>
      </trkpt>
      <trkpt lat="56.889419282654" lon="14.83171505308">
        <ele>187.2</ele>
        <time>2020-01-13T18:43:09Z</time>
      </trkpt>
      <trkpt lat="56.889300762588" lon="14.831624780017">
        <ele>186</ele>
        <time>2020-01-13T18:43:13Z</time>
      </trkpt>
      <trkpt lat="56.889215351027" lon="14.831545654881">
        <ele>185</ele>
        <time>2020-01-13T18:43:16Z</time>
      </trkpt>
      <trkpt lat="56.889047796846" lon="14.831400648011">
        <ele>184.2</ele>
        <time>2020-01-13T18:43:21Z</time>
      </trkpt>
      <trkpt lat="56.888978059438" lon="14.831342729082">
        <ele>183.8</ele>
        <time>2020-01-13T18:43:23Z</time>
      </trkpt>
      <trkpt lat="56.88887563262" lon="14.831206523207">
        <ele>181</ele>
        <time>2020-01-13T18:43:27Z</time>
      </trkpt>
      <trkpt lat="56.888755939088" lon="14.830983229391">
        <ele>180</ele>
        <time>2020-01-13T18:43:33Z</time>
      </trkpt>
      <trkpt lat="56.888577488437" lon="14.830872336854">
        <ele>179.2</ele>
        <time>2020-01-13T18:43:39Z</time>
      </trkpt>
      <trkpt lat="56.888504985002" lon="14.830849538086">
        <ele>178.6</ele>
        <time>2020-01-13T18:43:41Z</time>
      </trkpt>
      <trkpt lat="56.888314212958" lon="14.830887675731">
        <ele>178.2</ele>
        <time>2020-01-13T18:43:47Z</time>
      </trkpt>
      <trkpt lat="56.888126039303" lon="14.83102438452">
        <ele>178</ele>
        <time>2020-01-13T18:43:53Z</time>
      </trkpt>
      <trkpt lat="56.887950438498" lon="14.831113651755">
        <ele>177.6</ele>
        <time>2020-01-13T18:43:59Z</time>
      </trkpt>
      <trkpt lat="56.887754804952" lon="14.831172408874">
        <ele>177.6</ele>
        <time>2020-01-13T18:44:06Z</time>
      </trkpt>
      <trkpt lat="56.887547185289" lon="14.831295706623">
        <ele>177.6</ele>
        <time>2020-01-13T18:44:13Z</time>
      </trkpt>
      <trkpt lat="56.887358005806" lon="14.831393020482">
        <ele>177.4</ele>
        <time>2020-01-13T18:44:18Z</time>
      </trkpt>
      <trkpt lat="56.887205706683" lon="14.831627546044">
        <ele>178.4</ele>
        <time>2020-01-13T18:44:24Z</time>
      </trkpt>
      <trkpt lat="56.887197324783" lon="14.831668617354">
        <ele>178.6</ele>
        <time>2020-01-13T18:44:25Z</time>
      </trkpt>
      <trkpt lat="56.887179722793" lon="14.831789903447">
        <ele>180</ele>
        <time>2020-01-13T18:44:28Z</time>
      </trkpt>
      <trkpt lat="56.887129263755" lon="14.832099195557">
        <ele>181.2</ele>
        <time>2020-01-13T18:44:34Z</time>
      </trkpt>
      <trkpt lat="56.887118870199" lon="14.832243531875">
        <ele>182.4</ele>
        <time>2020-01-13T18:44:37Z</time>
      </trkpt>
      <trkpt lat="56.887106464987" lon="14.83231435893">
        <ele>183.6</ele>
        <time>2020-01-13T18:44:39Z</time>
      </trkpt>
      <trkpt lat="56.887095065603" lon="14.832379067198">
        <ele>184.6</ele>
        <time>2020-01-13T18:44:41Z</time>
      </trkpt>
      <trkpt lat="56.887093305404" lon="14.832445451846">
        <ele>185.8</ele>
        <time>2020-01-13T18:44:43Z</time>
      </trkpt>
      <trkpt lat="56.887087940988" lon="14.83256665412">
        <ele>186.8</ele>
        <time>2020-01-13T18:44:46Z</time>
      </trkpt>
      <trkpt lat="56.886969001827" lon="14.832813165799">
        <ele>186</ele>
        <time>2020-01-13T18:44:53Z</time>
      </trkpt>
      <trkpt lat="56.88692348811" lon="14.832865385036">
        <ele>185.6</ele>
        <time>2020-01-13T18:44:55Z</time>
      </trkpt>
      <trkpt lat="56.886748976952" lon="14.832983821283">
        <ele>185.4</ele>
        <time>2020-01-13T18:45:02Z</time>
      </trkpt>
      <trkpt lat="56.886559210736" lon="14.833087840662">
        <ele>185.6</ele>
        <time>2020-01-13T18:45:09Z</time>
      </trkpt>
      <trkpt lat="56.886379921895" lon="14.83306872993">
        <ele>186.4</ele>
        <time>2020-01-13T18:45:16Z</time>
      </trkpt>
      <trkpt lat="56.886251511187" lon="14.833035034692">
        <ele>184.6</ele>
        <time>2020-01-13T18:45:20Z</time>
      </trkpt>
      <trkpt lat="56.886149922559" lon="14.8329706617">
        <ele>183.4</ele>
        <time>2020-01-13T18:45:23Z</time>
      </trkpt>
      <trkpt lat="56.886099044426" lon="14.832942582335">
        <ele>182.2</ele>
        <time>2020-01-13T18:45:25Z</time>
      </trkpt>
      <trkpt lat="56.885984882948" lon="14.83286253519">
        <ele>181</ele>
        <time>2020-01-13T18:45:28Z</time>
      </trkpt>
      <trkpt lat="56.885819172785" lon="14.832743679848">
        <ele>181</ele>
        <time>2020-01-13T18:45:35Z</time>
      </trkpt>
      <trkpt lat="56.885688247507" lon="14.832674529173">
        <ele>182</ele>
        <time>2020-01-13T18:45:39Z</time>
      </trkpt>
      <trkpt lat="56.88555556203" lon="14.832653322966">
        <ele>183.6</ele>
        <time>2020-01-13T18:45:42Z</time>
      </trkpt>
      <trkpt lat="56.88535439643" lon="14.832689784231">
        <ele>183</ele>
        <time>2020-01-13T18:45:47Z</time>
      </trkpt>
      <trkpt lat="56.885169407897" lon="14.832694478095">
        <ele>183.6</ele>
        <time>2020-01-13T18:45:54Z</time>
      </trkpt>
      <trkpt lat="56.885078045187" lon="14.832571264165">
        <ele>182.4</ele>
        <time>2020-01-13T18:45:59Z</time>
      </trkpt>
      <trkpt lat="56.885020293896" lon="14.83248283512">
        <ele>180.8</ele>
        <time>2020-01-13T18:46:02Z</time>
      </trkpt>
      <trkpt lat="56.88498643102" lon="14.832413097712">
        <ele>179.4</ele>
        <time>2020-01-13T18:46:04Z</time>
      </trkpt>
      <trkpt lat="56.884936223439" lon="14.832320896812">
        <ele>178.2</ele>
        <time>2020-01-13T18:46:07Z</time>
      </trkpt>
      <trkpt lat="56.884774117493" lon="14.832082431757">
        <ele>177</ele>
        <time>2020-01-13T18:46:14Z</time>
      </trkpt>
      <trkpt lat="56.88460505457" lon="14.831834243698">
        <ele>177</ele>
        <time>2020-01-13T18:46:20Z</time>
      </trkpt>
      <trkpt lat="56.884467088496" lon="14.83161866123">
        <ele>177.4</ele>
        <time>2020-01-13T18:46:25Z</time>
      </trkpt>
      <trkpt lat="56.88426558762" lon="14.831537608257">
        <ele>177.8</ele>
        <time>2020-01-13T18:46:31Z</time>
      </trkpt>
      <trkpt lat="56.884071378997" lon="14.831688231">
        <ele>177.8</ele>
        <time>2020-01-13T18:46:37Z</time>
      </trkpt>
      <trkpt lat="56.883923773738" lon="14.831956032705">
        <ele>177.8</ele>
        <time>2020-01-13T18:46:44Z</time>
      </trkpt>
      <trkpt lat="56.883811204821" lon="14.832224085867">
        <ele>177.8</ele>
        <time>2020-01-13T18:46:52Z</time>
      </trkpt>
      <trkpt lat="56.883739288119" lon="14.832365572339">
        <ele>178.2</ele>
        <time>2020-01-13T18:46:55Z</time>
      </trkpt>
      <trkpt lat="56.883601238226" lon="14.832614682407">
        <ele>177.8</ele>
        <time>2020-01-13T18:47:01Z</time>
      </trkpt>
      <trkpt lat="56.883433767864" lon="14.832830013418">
        <ele>177.4</ele>
        <time>2020-01-13T18:47:07Z</time>
      </trkpt>
      <trkpt lat="56.883270236995" lon="14.833019695815">
        <ele>177.8</ele>
        <time>2020-01-13T18:47:14Z</time>
      </trkpt>
      <trkpt lat="56.883240648888" lon="14.833407442509">
        <ele>177.8</ele>
        <time>2020-01-13T18:47:22Z</time>
      </trkpt>
      <trkpt lat="56.883289431546" lon="14.83353560176">
        <ele>179.2</ele>
        <time>2020-01-13T18:47:26Z</time>
      </trkpt>
      <trkpt lat="56.883359923325" lon="14.833654205645">
        <ele>180.6</ele>
        <time>2020-01-13T18:47:30Z</time>
      </trkpt>
      <trkpt lat="56.883426810887" lon="14.833744562527">
        <ele>181.8</ele>
        <time>2020-01-13T18:47:33Z</time>
      </trkpt>
      <trkpt lat="56.88358413915" lon="14.833904740636">
        <ele>182</ele>
        <time>2020-01-13T18:47:39Z</time>
      </trkpt>
      <trkpt lat="56.883783712189" lon="14.834024350349">
        <ele>182</ele>
        <time>2020-01-13T18:47:45Z</time>
      </trkpt>
      <trkpt lat="56.883956379329" lon="14.834154688894">
        <ele>181.6</ele>
        <time>2020-01-13T18:47:52Z</time>
      </trkpt>
      <trkpt lat="56.884137428369" lon="14.834307239474">
        <ele>180.8</ele>
        <time>2020-01-13T18:47:59Z</time>
      </trkpt>
      <trkpt lat="56.884166094467" lon="14.83433523502">
        <ele>180.6</ele>
        <time>2020-01-13T18:48:00Z</time>
      </trkpt>
      <trkpt lat="56.884296768288" lon="14.834598929594">
        <ele>181.2</ele>
        <time>2020-01-13T18:48:07Z</time>
      </trkpt>
      <trkpt lat="56.884419395485" lon="14.834860109598">
        <ele>181.6</ele>
        <time>2020-01-13T18:48:13Z</time>
      </trkpt>
      <trkpt lat="56.884436662199" lon="14.834898750157">
        <ele>181.8</ele>
        <time>2020-01-13T18:48:14Z</time>
      </trkpt>
      <trkpt lat="56.884505142322" lon="14.835131180244">
        <ele>182.8</ele>
        <time>2020-01-13T18:48:19Z</time>
      </trkpt>
      <trkpt lat="56.884619974352" lon="14.835411219523">
        <ele>183.6</ele>
        <time>2020-01-13T18:48:25Z</time>
      </trkpt>
      <trkpt lat="56.884679318204" lon="14.835574582754">
        <ele>183.8</ele>
        <time>2020-01-13T18:48:29Z</time>
      </trkpt>
      <trkpt lat="56.884712761985" lon="14.835647170008">
        <ele>185.2</ele>
        <time>2020-01-13T18:48:32Z</time>
      </trkpt>
      <trkpt lat="56.884764645946" lon="14.835716991235">
        <ele>186.6</ele>
        <time>2020-01-13T18:48:35Z</time>
      </trkpt>
      <trkpt lat="56.884861037796" lon="14.835757391993">
        <ele>187.8</ele>
        <time>2020-01-13T18:48:39Z</time>
      </trkpt>
      <trkpt lat="56.885043176483" lon="14.835738532718">
        <ele>188.6</ele>
        <time>2020-01-13T18:48:46Z</time>
      </trkpt>
      <trkpt lat="56.88524375535" lon="14.835685810567">
        <ele>187.8</ele>
        <time>2020-01-13T18:48:53Z</time>
      </trkpt>
      <trkpt lat="56.885427402779" lon="14.835587323242">
        <ele>187.6</ele>
        <time>2020-01-13T18:48:59Z</time>
      </trkpt>
      <trkpt lat="56.885624209791" lon="14.835469976642">
        <ele>187.4</ele>
        <time>2020-01-13T18:49:05Z</time>
      </trkpt>
      <trkpt lat="56.885754883612" lon="14.835387331108">
        <ele>186.4</ele>
        <time>2020-01-13T18:49:09Z</time>
      </trkpt>
      <trkpt lat="56.885828309056" lon="14.835382804882">
        <ele>188</ele>
        <time>2020-01-13T18:49:12Z</time>
      </trkpt>
      <trkpt lat="56.886000138006" lon="14.835359587019">
        <ele>189.2</ele>
        <time>2020-01-13T18:49:19Z</time>
      </trkpt>
      <trkpt lat="56.886192167335" lon="14.835399568682">
        <ele>189.6</ele>
        <time>2020-01-13T18:49:27Z</time>
      </trkpt>
      <trkpt lat="56.886328624667" lon="14.835577516419">
        <ele>190.2</ele>
        <time>2020-01-13T18:49:33Z</time>
      </trkpt>
      <trkpt lat="56.886473463899" lon="14.835828805781">
        <ele>190.4</ele>
        <time>2020-01-13T18:49:39Z</time>
      </trkpt>
      <trkpt lat="56.886558624003" lon="14.836083196446">
        <ele>191.4</ele>
        <time>2020-01-13T18:49:45Z</time>
      </trkpt>
      <trkpt lat="56.886594414716" lon="14.836308837194">
        <ele>192.6</ele>
        <time>2020-01-13T18:49:49Z</time>
      </trkpt>
      <trkpt lat="56.886654680577" lon="14.836554678321">
        <ele>192.2</ele>
        <time>2020-01-13T18:49:52Z</time>
      </trkpt>
      <trkpt lat="56.886682257028" lon="14.836706809806">
        <ele>191.2</ele>
        <time>2020-01-13T18:49:54Z</time>
      </trkpt>
      <trkpt lat="56.886740930328" lon="14.836895570194">
        <ele>189.8</ele>
        <time>2020-01-13T18:49:57Z</time>
      </trkpt>
      <trkpt lat="56.886828940278" lon="14.837229588909">
        <ele>189</ele>
        <time>2020-01-13T18:50:04Z</time>
      </trkpt>
      <trkpt lat="56.886895576383" lon="14.837547514376">
        <ele>190.2</ele>
        <time>2020-01-13T18:50:11Z</time>
      </trkpt>
      <trkpt lat="56.886927511422" lon="14.837652036669">
        <ele>191</ele>
        <time>2020-01-13T18:50:14Z</time>
      </trkpt>
      <trkpt lat="56.887036308484" lon="14.837890837">
        <ele>192.4</ele>
        <time>2020-01-13T18:50:21Z</time>
      </trkpt>
      <trkpt lat="56.887083917676" lon="14.837996868035">
        <ele>193.4</ele>
        <time>2020-01-13T18:50:24Z</time>
      </trkpt>
      <trkpt lat="56.887205371407" lon="14.838284702481">
        <ele>193.6</ele>
        <time>2020-01-13T18:50:32Z</time>
      </trkpt>
      <trkpt lat="56.887342666929" lon="14.838552671824">
        <ele>193.8</ele>
        <time>2020-01-13T18:50:39Z</time>
      </trkpt>
      <trkpt lat="56.887472670198" lon="14.838822736642">
        <ele>194</ele>
        <time>2020-01-13T18:50:45Z</time>
      </trkpt>
      <trkpt lat="56.887582473088" lon="14.839087017949">
        <ele>193.2</ele>
        <time>2020-01-13T18:50:52Z</time>
      </trkpt>
      <trkpt lat="56.887691437788" lon="14.839363033916">
        <ele>193.6</ele>
        <time>2020-01-13T18:50:59Z</time>
      </trkpt>
      <trkpt lat="56.887822363066" lon="14.839654053484">
        <ele>193.6</ele>
        <time>2020-01-13T18:51:06Z</time>
      </trkpt>
      <trkpt lat="56.88791422869" lon="14.839949599278">
        <ele>193.2</ele>
        <time>2020-01-13T18:51:12Z</time>
      </trkpt>
      <trkpt lat="56.887995197844" lon="14.840271715695">
        <ele>193.8</ele>
        <time>2020-01-13T18:51:19Z</time>
      </trkpt>
      <trkpt lat="56.888044902511" lon="14.840530884043">
        <ele>194.6</ele>
        <time>2020-01-13T18:51:25Z</time>
      </trkpt>
      <trkpt lat="56.888122602724" lon="14.840833805909">
        <ele>195.4</ele>
        <time>2020-01-13T18:51:32Z</time>
      </trkpt>
      <trkpt lat="56.888153448116" lon="14.840914272149">
        <ele>195.6</ele>
        <time>2020-01-13T18:51:34Z</time>
      </trkpt>
      <trkpt lat="56.888315302605" lon="14.841095153551">
        <ele>196.6</ele>
        <time>2020-01-13T18:51:41Z</time>
      </trkpt>
      <trkpt lat="56.88834338197" lon="14.84110361927">
        <ele>196.8</ele>
        <time>2020-01-13T18:51:42Z</time>
      </trkpt>
      <trkpt lat="56.888540859534" lon="14.841041257934">
        <ele>197.4</ele>
        <time>2020-01-13T18:51:50Z</time>
      </trkpt>
      <trkpt lat="56.888753005423" lon="14.840860879446">
        <ele>196.4</ele>
        <time>2020-01-13T18:51:55Z</time>
      </trkpt>
      <trkpt lat="56.888858114449" lon="14.840791728771">
        <ele>195.6</ele>
        <time>2020-01-13T18:51:57Z</time>
      </trkpt>
      <trkpt lat="56.88895106972" lon="14.840735318584">
        <ele>194.2</ele>
        <time>2020-01-13T18:51:59Z</time>
      </trkpt>
      <trkpt lat="56.889036648919" lon="14.84069122979">
        <ele>192.6</ele>
        <time>2020-01-13T18:52:01Z</time>
      </trkpt>
      <trkpt lat="56.889133962778" lon="14.840669604488">
        <ele>191.4</ele>
        <time>2020-01-13T18:52:04Z</time>
      </trkpt>
      <trkpt lat="56.889320124777" lon="14.840560304512">
        <ele>191.8</ele>
        <time>2020-01-13T18:52:12Z</time>
      </trkpt>
      <trkpt lat="56.889512154106" lon="14.840418734221">
        <ele>192.4</ele>
        <time>2020-01-13T18:52:19Z</time>
      </trkpt>
      <trkpt lat="56.889565379171" lon="14.840392415055">
        <ele>192.6</ele>
        <time>2020-01-13T18:52:21Z</time>
      </trkpt>
      <trkpt lat="56.889741734347" lon="14.840263669071">
        <ele>192.8</ele>
        <time>2020-01-13T18:52:28Z</time>
      </trkpt>
      <trkpt lat="56.889932674029" lon="14.840137689114">
        <ele>193.4</ele>
        <time>2020-01-13T18:52:35Z</time>
      </trkpt>
      <trkpt lat="56.889959077014" lon="14.84010868774">
        <ele>193.6</ele>
        <time>2020-01-13T18:52:36Z</time>
      </trkpt>
      <trkpt lat="56.890079944012" lon="14.840022773265">
        <ele>194.8</ele>
        <time>2020-01-13T18:52:42Z</time>
      </trkpt>
      <trkpt lat="56.890273314445" lon="14.83994524069">
        <ele>195.4</ele>
        <time>2020-01-13T18:52:49Z</time>
      </trkpt>
      <trkpt lat="56.890453609114" lon="14.839891512711">
        <ele>195</ele>
        <time>2020-01-13T18:52:56Z</time>
      </trkpt>
      <trkpt lat="56.890578331786" lon="14.839843652062">
        <ele>196</ele>
        <time>2020-01-13T18:53:00Z</time>
      </trkpt>
      <trkpt lat="56.890765834889" lon="14.839676014062">
        <ele>195.6</ele>
        <time>2020-01-13T18:53:06Z</time>
      </trkpt>
      <trkpt lat="56.890956690752" lon="14.839532348296">
        <ele>196</ele>
        <time>2020-01-13T18:53:13Z</time>
      </trkpt>
      <trkpt lat="56.891124328752" lon="14.839356747491">
        <ele>195.6</ele>
        <time>2020-01-13T18:53:19Z</time>
      </trkpt>
      <trkpt lat="56.891312586226" lon="14.839153570235">
        <ele>195.2</ele>
        <time>2020-01-13T18:53:24Z</time>
      </trkpt>
      <trkpt lat="56.891347790206" lon="14.839118366255">
        <ele>194.8</ele>
        <time>2020-01-13T18:53:25Z</time>
      </trkpt>
      <trkpt lat="56.891382994186" lon="14.839089532519">
        <ele>193.6</ele>
        <time>2020-01-13T18:53:26Z</time>
      </trkpt>
      <trkpt lat="56.891443176228" lon="14.839024488975">
        <ele>191.8</ele>
        <time>2020-01-13T18:53:28Z</time>
      </trkpt>
      <trkpt lat="56.891627158933" lon="14.838986435149">
        <ele>191.6</ele>
        <time>2020-01-13T18:53:35Z</time>
      </trkpt>
      <trkpt lat="56.891829162723" lon="14.838955170662">
        <ele>191.6</ele>
        <time>2020-01-13T18:53:43Z</time>
      </trkpt>
      <trkpt lat="56.891907533488" lon="14.838920301958">
        <ele>191.2</ele>
        <time>2020-01-13T18:53:46Z</time>
      </trkpt>
      <trkpt lat="56.892082463741" lon="14.838795160191">
        <ele>192</ele>
        <time>2020-01-13T18:53:52Z</time>
      </trkpt>
      <trkpt lat="56.892264686247" lon="14.838605896889">
        <ele>191.6</ele>
        <time>2020-01-13T18:53:58Z</time>
      </trkpt>
      <trkpt lat="56.892441460518" lon="14.838445048228">
        <ele>191.2</ele>
        <time>2020-01-13T18:54:04Z</time>
      </trkpt>
      <trkpt lat="56.892579007497" lon="14.838210019752">
        <ele>191</ele>
        <time>2020-01-13T18:54:10Z</time>
      </trkpt>
      <trkpt lat="56.892742454547" lon="14.837995024017">
        <ele>191</ele>
        <time>2020-01-13T18:54:17Z</time>
      </trkpt>
      <trkpt lat="56.892874469472" lon="14.837766701061">
        <ele>191.4</ele>
        <time>2020-01-13T18:54:23Z</time>
      </trkpt>
      <trkpt lat="56.893005143293" lon="14.837486661782">
        <ele>191.8</ele>
        <time>2020-01-13T18:54:30Z</time>
      </trkpt>
      <trkpt lat="56.893156688045" lon="14.83729236934">
        <ele>191.6</ele>
        <time>2020-01-13T18:54:36Z</time>
      </trkpt>
      <trkpt lat="56.893292726282" lon="14.837069578438">
        <ele>191.4</ele>
        <time>2020-01-13T18:54:42Z</time>
      </trkpt>
      <trkpt lat="56.893458771721" lon="14.83682968846">
        <ele>190.8</ele>
        <time>2020-01-13T18:54:49Z</time>
      </trkpt>
      <trkpt lat="56.893483749783" lon="14.836799429801">
        <ele>190.8</ele>
        <time>2020-01-13T18:54:50Z</time>
      </trkpt>
      <trkpt lat="56.893654572905" lon="14.836608993033">
        <ele>191</ele>
        <time>2020-01-13T18:54:57Z</time>
      </trkpt>
      <trkpt lat="56.893825647484" lon="14.836390225443">
        <ele>191.2</ele>
        <time>2020-01-13T18:55:03Z</time>
      </trkpt>
      <trkpt lat="56.894007702352" lon="14.836235998483">
        <ele>190.6</ele>
        <time>2020-01-13T18:55:10Z</time>
      </trkpt>
      <trkpt lat="56.894209622323" lon="14.836117813693">
        <ele>191</ele>
        <time>2020-01-13T18:55:17Z</time>
      </trkpt>
      <trkpt lat="56.894398634168" lon="14.836037179815">
        <ele>191</ele>
        <time>2020-01-13T18:55:23Z</time>
      </trkpt>
      <trkpt lat="56.894577755371" lon="14.83592695783">
        <ele>191.2</ele>
        <time>2020-01-13T18:55:29Z</time>
      </trkpt>
      <trkpt lat="56.89474966814" lon="14.835821262071">
        <ele>190.8</ele>
        <time>2020-01-13T18:55:35Z</time>
      </trkpt>
      <trkpt lat="56.894925604221" lon="14.835655719546">
        <ele>190.8</ele>
        <time>2020-01-13T18:55:41Z</time>
      </trkpt>
      <trkpt lat="56.895104557786" lon="14.835510964133">
        <ele>191</ele>
        <time>2020-01-13T18:55:48Z</time>
      </trkpt>
      <trkpt lat="56.895294575459" lon="14.835420858708">
        <ele>191.2</ele>
        <time>2020-01-13T18:55:56Z</time>
      </trkpt>
      <trkpt lat="56.895410664774" lon="14.835400909786">
        <ele>191.8</ele>
        <time>2020-01-13T18:56:01Z</time>
      </trkpt>
      <trkpt lat="56.895600933904" lon="14.835387414927">
        <ele>193</ele>
        <time>2020-01-13T18:56:09Z</time>
      </trkpt>
      <trkpt lat="56.895786844446" lon="14.835270487422">
        <ele>193.8</ele>
        <time>2020-01-13T18:56:15Z</time>
      </trkpt>
      <trkpt lat="56.895977281214" lon="14.835165797491">
        <ele>193</ele>
        <time>2020-01-13T18:56:20Z</time>
      </trkpt>
      <trkpt lat="56.896113235632" lon="14.835104525802">
        <ele>192</ele>
        <time>2020-01-13T18:56:23Z</time>
      </trkpt>
      <trkpt lat="56.896313479223" lon="14.835064627958">
        <ele>191.4</ele>
        <time>2020-01-13T18:56:29Z</time>
      </trkpt>
      <trkpt lat="56.896525373655" lon="14.835113662073">
        <ele>191.8</ele>
        <time>2020-01-13T18:56:37Z</time>
      </trkpt>
      <trkpt lat="56.896717151527" lon="14.835113578254">
        <ele>191.4</ele>
        <time>2020-01-13T18:56:44Z</time>
      </trkpt>
      <trkpt lat="56.896896608006" lon="14.835228494103">
        <ele>192</ele>
        <time>2020-01-13T18:56:51Z</time>
      </trkpt>
      <trkpt lat="56.897094001751" lon="14.835365957263">
        <ele>192.8</ele>
        <time>2020-01-13T18:56:57Z</time>
      </trkpt>
      <trkpt lat="56.897258789905" lon="14.83548271713">
        <ele>193</ele>
        <time>2020-01-13T18:57:02Z</time>
      </trkpt>
      <trkpt lat="56.897438749298" lon="14.835553544185">
        <ele>193.8</ele>
        <time>2020-01-13T18:57:08Z</time>
      </trkpt>
      <trkpt lat="56.897516868606" lon="14.835565614121">
        <ele>194</ele>
        <time>2020-01-13T18:57:11Z</time>
      </trkpt>
      <trkpt lat="56.897701689501" lon="14.835548012131">
        <ele>193.6</ele>
        <time>2020-01-13T18:57:17Z</time>
      </trkpt>
      <trkpt lat="56.897876200659" lon="14.835424211468">
        <ele>192.8</ele>
        <time>2020-01-13T18:57:22Z</time>
      </trkpt>
      <trkpt lat="56.898001258607" lon="14.835333603129">
        <ele>191.8</ele>
        <time>2020-01-13T18:57:25Z</time>
      </trkpt>
      <trkpt lat="56.898177110869" lon="14.835158421419">
        <ele>191.4</ele>
        <time>2020-01-13T18:57:30Z</time>
      </trkpt>
      <trkpt lat="56.898243914612" lon="14.835072590763">
        <ele>190.4</ele>
        <time>2020-01-13T18:57:32Z</time>
      </trkpt>
      <trkpt lat="56.898364446334" lon="14.83495214286">
        <ele>189.4</ele>
        <time>2020-01-13T18:57:36Z</time>
      </trkpt>
      <trkpt lat="56.898562007717" lon="14.834849632223">
        <ele>188.8</ele>
        <time>2020-01-13T18:57:43Z</time>
      </trkpt>
      <trkpt lat="56.898585057942" lon="14.834843932531">
        <ele>188.4</ele>
        <time>2020-01-13T18:57:44Z</time>
      </trkpt>
      <trkpt lat="56.898755210512" lon="14.834940575838">
        <ele>187.6</ele>
        <time>2020-01-13T18:57:50Z</time>
      </trkpt>
      <trkpt lat="56.898885213781" lon="14.835133024262">
        <ele>187.4</ele>
        <time>2020-01-13T18:57:54Z</time>
      </trkpt>
      <trkpt lat="56.898968446048" lon="14.83534860673">
        <ele>186.2</ele>
        <time>2020-01-13T18:57:58Z</time>
      </trkpt>
      <trkpt lat="56.899133904754" lon="14.835547509217">
        <ele>186</ele>
        <time>2020-01-13T18:58:04Z</time>
      </trkpt>
      <trkpt lat="56.899311349577" lon="14.835529823408">
        <ele>185.2</ele>
        <time>2020-01-13T18:58:09Z</time>
      </trkpt>
      <trkpt lat="56.899496924843" lon="14.835368220376">
        <ele>185.4</ele>
        <time>2020-01-13T18:58:15Z</time>
      </trkpt>
      <trkpt lat="56.899603374973" lon="14.835236373089">
        <ele>185.2</ele>
        <time>2020-01-13T18:58:19Z</time>
      </trkpt>
      <trkpt lat="56.899746873101" lon="14.835027412322">
        <ele>184.2</ele>
        <time>2020-01-13T18:58:25Z</time>
      </trkpt>
      <trkpt lat="56.899932448367" lon="14.834833371337">
        <ele>184.6</ele>
        <time>2020-01-13T18:58:32Z</time>
      </trkpt>
      <trkpt lat="56.900114754692" lon="14.834700182946">
        <ele>185.4</ele>
        <time>2020-01-13T18:58:38Z</time>
      </trkpt>
      <trkpt lat="56.900305945831" lon="14.834581914337">
        <ele>186</ele>
        <time>2020-01-13T18:58:44Z</time>
      </trkpt>
      <trkpt lat="56.900497304608" lon="14.834464903013">
        <ele>185.4</ele>
        <time>2020-01-13T18:58:50Z</time>
      </trkpt>
      <trkpt lat="56.900666199893" lon="14.83430086923">
        <ele>185.4</ele>
        <time>2020-01-13T18:58:56Z</time>
      </trkpt>
      <trkpt lat="56.90076116682" lon="14.833996354803">
        <ele>184.8</ele>
        <time>2020-01-13T18:59:02Z</time>
      </trkpt>
      <trkpt lat="56.900786731615" lon="14.833656384939">
        <ele>184.6</ele>
        <time>2020-01-13T18:59:08Z</time>
      </trkpt>
      <trkpt lat="56.90073266836" lon="14.833338543291">
        <ele>184.6</ele>
        <time>2020-01-13T18:59:14Z</time>
      </trkpt>
      <trkpt lat="56.900649352274" lon="14.833159673545">
        <ele>184</ele>
        <time>2020-01-13T18:59:18Z</time>
      </trkpt>
      <trkpt lat="56.900496131142" lon="14.832939732489">
        <ele>184</ele>
        <time>2020-01-13T18:59:24Z</time>
      </trkpt>
      <trkpt lat="56.900335701576" lon="14.832794725619">
        <ele>185.2</ele>
        <time>2020-01-13T18:59:30Z</time>
      </trkpt>
      <trkpt lat="56.900163788807" lon="14.832649970206">
        <ele>185.4</ele>
        <time>2020-01-13T18:59:37Z</time>
      </trkpt>
      <trkpt lat="56.899992881866" lon="14.832500269472">
        <ele>185</ele>
        <time>2020-01-13T18:59:45Z</time>
      </trkpt>
      <trkpt lat="56.89980395384" lon="14.832374960067">
        <ele>185.6</ele>
        <time>2020-01-13T18:59:53Z</time>
      </trkpt>
      <trkpt lat="56.899676129865" lon="14.832204220764">
        <ele>186.2</ele>
        <time>2020-01-13T18:59:59Z</time>
      </trkpt>
      <trkpt lat="56.899589125743" lon="14.831954523963">
        <ele>187.4</ele>
        <time>2020-01-13T19:00:04Z</time>
      </trkpt>
      <trkpt lat="56.89954495313" lon="14.831661157463">
        <ele>188.4</ele>
        <time>2020-01-13T19:00:10Z</time>
      </trkpt>
      <trkpt lat="56.899516873765" lon="14.831545403424">
        <ele>189.6</ele>
        <time>2020-01-13T19:00:13Z</time>
      </trkpt>
      <trkpt lat="56.899474796627" lon="14.831396289423">
        <ele>190.6</ele>
        <time>2020-01-13T19:00:17Z</time>
      </trkpt>
      <trkpt lat="56.899393492197" lon="14.831091523539">
        <ele>191</ele>
        <time>2020-01-13T19:00:24Z</time>
      </trkpt>
      <trkpt lat="56.899310846663" lon="14.830734957513">
        <ele>190.6</ele>
        <time>2020-01-13T19:00:30Z</time>
      </trkpt>
      <trkpt lat="56.899224093998" lon="14.830473609871">
        <ele>189.2</ele>
        <time>2020-01-13T19:00:34Z</time>
      </trkpt>
      <trkpt lat="56.899175478978" lon="14.83035047976">
        <ele>188</ele>
        <time>2020-01-13T19:00:36Z</time>
      </trkpt>
      <trkpt lat="56.899132228374" lon="14.830253920272">
        <ele>187</ele>
        <time>2020-01-13T19:00:38Z</time>
      </trkpt>
      <trkpt lat="56.898984790753" lon="14.830039595089">
        <ele>187.6</ele>
        <time>2020-01-13T19:00:45Z</time>
      </trkpt>
      <trkpt lat="56.898914466612" lon="14.829990644793">
        <ele>188</ele>
        <time>2020-01-13T19:00:48Z</time>
      </trkpt>
      <trkpt lat="56.898727634061" lon="14.829902467205">
        <ele>187.2</ele>
        <time>2020-01-13T19:00:53Z</time>
      </trkpt>
      <trkpt lat="56.898686898027" lon="14.829903221576">
        <ele>186.2</ele>
        <time>2020-01-13T19:00:54Z</time>
      </trkpt>
      <trkpt lat="56.898624788148" lon="14.829920572109">
        <ele>184.8</ele>
        <time>2020-01-13T19:00:56Z</time>
      </trkpt>
      <trkpt lat="56.898459580899" lon="14.830071027214">
        <ele>185</ele>
        <time>2020-01-13T19:01:04Z</time>
      </trkpt>
      <trkpt lat="56.898375426623" lon="14.830250316055">
        <ele>186</ele>
        <time>2020-01-13T19:01:09Z</time>
      </trkpt>
      <trkpt lat="56.898212901582" lon="14.83041585858">
        <ele>187.2</ele>
        <time>2020-01-13T19:01:16Z</time>
      </trkpt>
      <trkpt lat="56.89801693276" lon="14.8305231469">
        <ele>188.2</ele>
        <time>2020-01-13T19:01:24Z</time>
      </trkpt>
      <trkpt lat="56.897834123521" lon="14.830669997788">
        <ele>188.2</ele>
        <time>2020-01-13T19:01:31Z</time>
      </trkpt>
      <trkpt lat="56.897663719494" lon="14.830818273599">
        <ele>188.6</ele>
        <time>2020-01-13T19:01:38Z</time>
      </trkpt>
      <trkpt lat="56.8975861031" lon="14.830860266918">
        <ele>189.4</ele>
        <time>2020-01-13T19:01:41Z</time>
      </trkpt>
      <trkpt lat="56.89742433243" lon="14.831048608211">
        <ele>190.2</ele>
        <time>2020-01-13T19:01:48Z</time>
      </trkpt>
      <trkpt lat="56.897302208147" lon="14.831146592622">
        <ele>190.4</ele>
        <time>2020-01-13T19:01:52Z</time>
      </trkpt>
      <trkpt lat="56.89713012774" lon="14.831284893972">
        <ele>190.4</ele>
        <time>2020-01-13T19:01:58Z</time>
      </trkpt>
      <trkpt lat="56.896951677089" lon="14.831419842562">
        <ele>189.8</ele>
        <time>2020-01-13T19:02:05Z</time>
      </trkpt>
      <trkpt lat="56.896800048518" lon="14.831596449195">
        <ele>189.8</ele>
        <time>2020-01-13T19:02:13Z</time>
      </trkpt>
      <trkpt lat="56.89662972831" lon="14.831750759974">
        <ele>190.2</ele>
        <time>2020-01-13T19:02:19Z</time>
      </trkpt>
      <trkpt lat="56.896436190239" lon="14.831906328038">
        <ele>190</ele>
        <time>2020-01-13T19:02:26Z</time>
      </trkpt>
      <trkpt lat="56.896267714049" lon="14.83205032908">
        <ele>189.4</ele>
        <time>2020-01-13T19:02:32Z</time>
      </trkpt>
      <trkpt lat="56.896095466004" lon="14.832178991245">
        <ele>189.2</ele>
        <time>2020-01-13T19:02:39Z</time>
      </trkpt>
      <trkpt lat="56.895921206303" lon="14.832264318987">
        <ele>189</ele>
        <time>2020-01-13T19:02:45Z</time>
      </trkpt>
      <trkpt lat="56.895724902205" lon="14.832358196267">
        <ele>189.4</ele>
        <time>2020-01-13T19:02:51Z</time>
      </trkpt>
      <trkpt lat="56.895544439898" lon="14.832515859806">
        <ele>189.6</ele>
        <time>2020-01-13T19:02:58Z</time>
      </trkpt>
      <trkpt lat="56.895351991474" lon="14.832616861701">
        <ele>190.4</ele>
        <time>2020-01-13T19:03:05Z</time>
      </trkpt>
      <trkpt lat="56.895163901638" lon="14.83258341792">
        <ele>188.8</ele>
        <time>2020-01-13T19:03:11Z</time>
      </trkpt>
      <trkpt lat="56.895074299127" lon="14.832587692689">
        <ele>188.2</ele>
        <time>2020-01-13T19:03:13Z</time>
      </trkpt>
      <trkpt lat="56.89488629311" lon="14.832640666297">
        <ele>187.6</ele>
        <time>2020-01-13T19:03:18Z</time>
      </trkpt>
      <trkpt lat="56.894846227628" lon="14.832662040142">
        <ele>187.2</ele>
        <time>2020-01-13T19:03:19Z</time>
      </trkpt>
      <trkpt lat="56.894688731727" lon="14.832888602899">
        <ele>187.6</ele>
        <time>2020-01-13T19:03:25Z</time>
      </trkpt>
      <trkpt lat="56.894566188349" lon="14.833169145092">
        <ele>188</ele>
        <time>2020-01-13T19:03:32Z</time>
      </trkpt>
      <trkpt lat="56.894509526705" lon="14.833280540543">
        <ele>188.4</ele>
        <time>2020-01-13T19:03:35Z</time>
      </trkpt>
      <trkpt lat="56.894344403275" lon="14.833494111355">
        <ele>188.6</ele>
        <time>2020-01-13T19:03:42Z</time>
      </trkpt>
      <trkpt lat="56.89421993206" lon="14.83362780266">
        <ele>189.4</ele>
        <time>2020-01-13T19:03:48Z</time>
      </trkpt>
      <trkpt lat="56.894048857481" lon="14.833757554472">
        <ele>189.8</ele>
        <time>2020-01-13T19:03:54Z</time>
      </trkpt>
      <trkpt lat="56.89384693751" lon="14.833793345185">
        <ele>189.8</ele>
        <time>2020-01-13T19:04:01Z</time>
      </trkpt>
      <trkpt lat="56.893636970915" lon="14.833700389914">
        <ele>190</ele>
        <time>2020-01-13T19:04:09Z</time>
      </trkpt>
      <trkpt lat="56.893515768641" lon="14.833617492923">
        <ele>190.6</ele>
        <time>2020-01-13T19:04:14Z</time>
      </trkpt>
      <trkpt lat="56.893427926329" lon="14.833540127986">
        <ele>191.8</ele>
        <time>2020-01-13T19:04:18Z</time>
      </trkpt>
      <trkpt lat="56.893249810954" lon="14.833369221045">
        <ele>193</ele>
        <time>2020-01-13T19:04:26Z</time>
      </trkpt>
      <trkpt lat="56.893036910694" lon="14.83328833571">
        <ele>192.6</ele>
        <time>2020-01-13T19:04:34Z</time>
      </trkpt>
      <trkpt lat="56.89284530046" lon="14.833413980391">
        <ele>193.4</ele>
        <time>2020-01-13T19:04:40Z</time>
      </trkpt>
      <trkpt lat="56.892709429861" lon="14.833520346702">
        <ele>193.8</ele>
        <time>2020-01-13T19:04:45Z</time>
      </trkpt>
      <trkpt lat="56.892690067672" lon="14.833513473544">
        <ele>194.2</ele>
        <time>2020-01-13T19:04:46Z</time>
      </trkpt>
      <trkpt lat="56.892490578452" lon="14.833513138268">
        <ele>194.4</ele>
        <time>2020-01-13T19:04:54Z</time>
      </trkpt>
      <trkpt lat="56.892407094728" lon="14.833543480746">
        <ele>195.2</ele>
        <time>2020-01-13T19:04:57Z</time>
      </trkpt>
      <trkpt lat="56.892308775041" lon="14.8336076861">
        <ele>196.6</ele>
        <time>2020-01-13T19:05:02Z</time>
      </trkpt>
      <trkpt lat="56.892241384565" lon="14.833641465157">
        <ele>197.6</ele>
        <time>2020-01-13T19:05:05Z</time>
      </trkpt>
      <trkpt lat="56.892120098472" lon="14.833648086858">
        <ele>198.8</ele>
        <time>2020-01-13T19:05:10Z</time>
      </trkpt>
      <trkpt lat="56.891929829342" lon="14.833689241987">
        <ele>198.6</ele>
        <time>2020-01-13T19:05:15Z</time>
      </trkpt>
      <trkpt lat="56.891736123633" lon="14.833780939973">
        <ele>198.2</ele>
        <time>2020-01-13T19:05:22Z</time>
      </trkpt>
      <trkpt lat="56.891558846448" lon="14.833889653216">
        <ele>199</ele>
        <time>2020-01-13T19:05:29Z</time>
      </trkpt>
      <trkpt lat="56.891378132684" lon="14.833982524668">
        <ele>199.4</ele>
        <time>2020-01-13T19:05:36Z</time>
      </trkpt>
      <trkpt lat="56.89131560371" lon="14.834016890458">
        <ele>200</ele>
        <time>2020-01-13T19:05:39Z</time>
      </trkpt>
      <trkpt lat="56.891110079522" lon="14.833972382569">
        <ele>200.8</ele>
        <time>2020-01-13T19:05:47Z</time>
      </trkpt>
      <trkpt lat="56.890939759314" lon="14.83384824663">
        <ele>200</ele>
        <time>2020-01-13T19:05:52Z</time>
      </trkpt>
      <trkpt lat="56.890869602811" lon="14.833797368497">
        <ele>199</ele>
        <time>2020-01-13T19:05:54Z</time>
      </trkpt>
      <trkpt lat="56.890816629203" lon="14.833732241134">
        <ele>198</ele>
        <time>2020-01-13T19:05:56Z</time>
      </trkpt>
      <trkpt lat="56.890633736145" lon="14.833537194321">
        <ele>197.6</ele>
        <time>2020-01-13T19:06:02Z</time>
      </trkpt>
      <trkpt lat="56.890541535245" lon="14.833391097804">
        <ele>196.6</ele>
        <time>2020-01-13T19:06:05Z</time>
      </trkpt>
      <trkpt lat="56.890482945764" lon="14.833288754805">
        <ele>195.4</ele>
        <time>2020-01-13T19:06:07Z</time>
      </trkpt>
      <trkpt lat="56.890396360737" lon="14.833152968025">
        <ele>193.8</ele>
        <time>2020-01-13T19:06:10Z</time>
      </trkpt>
      <trkpt lat="56.89030307019" lon="14.832985832939">
        <ele>192.6</ele>
        <time>2020-01-13T19:06:15Z</time>
      </trkpt>
      <trkpt lat="56.890208103263" lon="14.832782152769">
        <ele>191.6</ele>
        <time>2020-01-13T19:06:20Z</time>
      </trkpt>
      <trkpt lat="56.89005412776" lon="14.832536646918">
        <ele>192</ele>
        <time>2020-01-13T19:06:26Z</time>
      </trkpt>
      <trkpt lat="56.889934434228" lon="14.832374792429">
        <ele>192.6</ele>
        <time>2020-01-13T19:06:30Z</time>
      </trkpt>
      <trkpt lat="56.889803089855" lon="14.83209642953">
        <ele>192.6</ele>
        <time>2020-01-13T19:06:36Z</time>
      </trkpt>
      <trkpt lat="56.889664117953" lon="14.831833573146">
        <ele>193.2</ele>
        <time>2020-01-13T19:06:44Z</time>
      </trkpt>
      <trkpt lat="56.88948583494" lon="14.831694768882">
        <ele>192.2</ele>
        <time>2020-01-13T19:06:49Z</time>
      </trkpt>
      <trkpt lat="56.889417438636" lon="14.83163626322">
        <ele>191.2</ele>
        <time>2020-01-13T19:06:51Z</time>
      </trkpt>
      <trkpt lat="56.889341833898" lon="14.831577338463">
        <ele>190.2</ele>
        <time>2020-01-13T19:06:53Z</time>
      </trkpt>
      <trkpt lat="56.889271342119" lon="14.83151556386">
        <ele>189</ele>
        <time>2020-01-13T19:06:55Z</time>
      </trkpt>
      <trkpt lat="56.889164221437" lon="14.831437109276">
        <ele>187.8</ele>
        <time>2020-01-13T19:06:58Z</time>
      </trkpt>
      <trkpt lat="56.888999433283" lon="14.83127500333">
        <ele>187.4</ele>
        <time>2020-01-13T19:07:02Z</time>
      </trkpt>
      <trkpt lat="56.88890748384" lon="14.831189675588">
        <ele>186.4</ele>
        <time>2020-01-13T19:07:04Z</time>
      </trkpt>
      <trkpt lat="56.888829867446" lon="14.831111388642">
        <ele>184.4</ele>
        <time>2020-01-13T19:07:06Z</time>
      </trkpt>
      <trkpt lat="56.888751329043" lon="14.831019942113">
        <ele>182.8</ele>
        <time>2020-01-13T19:07:08Z</time>
      </trkpt>
      <trkpt lat="56.888618643566" lon="14.830851130647">
        <ele>181.8</ele>
        <time>2020-01-13T19:07:12Z</time>
      </trkpt>
      <trkpt lat="56.888584277776" lon="14.830828834793">
        <ele>181.6</ele>
        <time>2020-01-13T19:07:13Z</time>
      </trkpt>
      <trkpt lat="56.888405910944" lon="14.830817100133">
        <ele>181.2</ele>
        <time>2020-01-13T19:07:18Z</time>
      </trkpt>
      <trkpt lat="56.888287642335" lon="14.830884490609">
        <ele>180.6</ele>
        <time>2020-01-13T19:07:22Z</time>
      </trkpt>
      <trkpt lat="56.88821262433" lon="14.830996221336">
        <ele>180</ele>
        <time>2020-01-13T19:07:26Z</time>
      </trkpt>
      <trkpt lat="56.888038699905" lon="14.83109730705">
        <ele>179.8</ele>
        <time>2020-01-13T19:07:32Z</time>
      </trkpt>
      <trkpt lat="56.887849520422" lon="14.831216916763">
        <ele>179.6</ele>
        <time>2020-01-13T19:07:39Z</time>
      </trkpt>
      <trkpt lat="56.887753463848" lon="14.83126494505">
        <ele>179.4</ele>
        <time>2020-01-13T19:07:42Z</time>
      </trkpt>
      <trkpt lat="56.887575516111" lon="14.831339208684">
        <ele>180</ele>
        <time>2020-01-13T19:07:48Z</time>
      </trkpt>
      <trkpt lat="56.887361526204" lon="14.831470469238">
        <ele>179.4</ele>
        <time>2020-01-13T19:07:54Z</time>
      </trkpt>
      <trkpt lat="56.88719589986" lon="14.831672473028">
        <ele>179.8</ele>
        <time>2020-01-13T19:08:00Z</time>
      </trkpt>
      <trkpt lat="56.887147117202" lon="14.831772720552">
        <ele>180.6</ele>
        <time>2020-01-13T19:08:03Z</time>
      </trkpt>
      <trkpt lat="56.88712968285" lon="14.831871375515">
        <ele>182</ele>
        <time>2020-01-13T19:08:06Z</time>
      </trkpt>
      <trkpt lat="56.887095736155" lon="14.832025351018">
        <ele>183</ele>
        <time>2020-01-13T19:08:10Z</time>
      </trkpt>
      <trkpt lat="56.88707603869" lon="14.832217212709">
        <ele>184.4</ele>
        <time>2020-01-13T19:08:15Z</time>
      </trkpt>
      <trkpt lat="56.887067237695" lon="14.832283597357">
        <ele>185.6</ele>
        <time>2020-01-13T19:08:17Z</time>
      </trkpt>
      <trkpt lat="56.887062040917" lon="14.832355346421">
        <ele>186.8</ele>
        <time>2020-01-13T19:08:19Z</time>
      </trkpt>
      <trkpt lat="56.887082325115" lon="14.832461712732">
        <ele>187.8</ele>
        <time>2020-01-13T19:08:22Z</time>
      </trkpt>
      <trkpt lat="56.88701987996" lon="14.832687688756">
        <ele>189</ele>
        <time>2020-01-13T19:08:27Z</time>
      </trkpt>
      <trkpt lat="56.886892894175" lon="14.832935876815">
        <ele>188</ele>
        <time>2020-01-13T19:08:34Z</time>
      </trkpt>
      <trkpt lat="56.886710336393" lon="14.833056911451">
        <ele>187.8</ele>
        <time>2020-01-13T19:08:40Z</time>
      </trkpt>
      <trkpt lat="56.8865219951" lon="14.833105694109">
        <ele>187.6</ele>
        <time>2020-01-13T19:08:48Z</time>
      </trkpt>
      <trkpt lat="56.886338934404" lon="14.833070322491">
        <ele>189</ele>
        <time>2020-01-13T19:08:54Z</time>
      </trkpt>
      <trkpt lat="56.886208092945" lon="14.833031095199">
        <ele>187.8</ele>
        <time>2020-01-13T19:08:57Z</time>
      </trkpt>
      <trkpt lat="56.886077335305" lon="14.832954987547">
        <ele>186.8</ele>
        <time>2020-01-13T19:09:00Z</time>
      </trkpt>
      <trkpt lat="56.886045651723" lon="14.832930512399">
        <ele>186.2</ele>
        <time>2020-01-13T19:09:01Z</time>
      </trkpt>
      <trkpt lat="56.8860023173" lon="14.832906372527">
        <ele>185.2</ele>
        <time>2020-01-13T19:09:02Z</time>
      </trkpt>
      <trkpt lat="56.885972561555" lon="14.832877035877">
        <ele>184.2</ele>
        <time>2020-01-13T19:09:03Z</time>
      </trkpt>
      <trkpt lat="56.885783968805" lon="14.832743596029">
        <ele>183.6</ele>
        <time>2020-01-13T19:09:11Z</time>
      </trkpt>
      <trkpt lat="56.885621946678" lon="14.832690538602">
        <ele>185.2</ele>
        <time>2020-01-13T19:09:18Z</time>
      </trkpt>
      <trkpt lat="56.885563692473" lon="14.832689951869">
        <ele>185.4</ele>
        <time>2020-01-13T19:09:20Z</time>
      </trkpt>
      <trkpt lat="56.885361604864" lon="14.832699423416">
        <ele>185.6</ele>
        <time>2020-01-13T19:09:27Z</time>
      </trkpt>
      <trkpt lat="56.885161361273" lon="14.832706715669">
        <ele>186.4</ele>
        <time>2020-01-13T19:09:34Z</time>
      </trkpt>
      <trkpt lat="56.884981234242" lon="14.832563049903">
        <ele>186.2</ele>
        <time>2020-01-13T19:09:39Z</time>
      </trkpt>
      <trkpt lat="56.884919711096" lon="14.832453917565">
        <ele>185.4</ele>
        <time>2020-01-13T19:09:41Z</time>
      </trkpt>
      <trkpt lat="56.884843184349" lon="14.832357609534">
        <ele>183.4</ele>
        <time>2020-01-13T19:09:43Z</time>
      </trkpt>
      <trkpt lat="56.884812590414" lon="14.832308072505">
        <ele>182.2</ele>
        <time>2020-01-13T19:09:44Z</time>
      </trkpt>
      <trkpt lat="56.884754336209" lon="14.832218386175">
        <ele>181</ele>
        <time>2020-01-13T19:09:46Z</time>
      </trkpt>
      <trkpt lat="56.884611173357" lon="14.831988722115">
        <ele>179.6</ele>
        <time>2020-01-13T19:09:52Z</time>
      </trkpt>
      <trkpt lat="56.8844768115" lon="14.83175612439">
        <ele>179.4</ele>
        <time>2020-01-13T19:09:58Z</time>
      </trkpt>
      <trkpt lat="56.884336247037" lon="14.831582786698">
        <ele>179.6</ele>
        <time>2020-01-13T19:10:03Z</time>
      </trkpt>
      <trkpt lat="56.884140110577" lon="14.831613715909">
        <ele>180.2</ele>
        <time>2020-01-13T19:10:08Z</time>
      </trkpt>
      <trkpt lat="56.883980938296" lon="14.831831980585">
        <ele>180.2</ele>
        <time>2020-01-13T19:10:15Z</time>
      </trkpt>
      <trkpt lat="56.883848923371" lon="14.832083689042">
        <ele>180.2</ele>
        <time>2020-01-13T19:10:22Z</time>
      </trkpt>
      <trkpt lat="56.883728643106" lon="14.832373451325">
        <ele>180.6</ele>
        <time>2020-01-13T19:10:29Z</time>
      </trkpt>
      <trkpt lat="56.883580115838" lon="14.832631278569">
        <ele>179.6</ele>
        <time>2020-01-13T19:10:36Z</time>
      </trkpt>
      <trkpt lat="56.883421362652" lon="14.832830097237">
        <ele>179.4</ele>
        <time>2020-01-13T19:10:41Z</time>
      </trkpt>
      <trkpt lat="56.883267554787" lon="14.833018522349">
        <ele>179.6</ele>
        <time>2020-01-13T19:10:46Z</time>
      </trkpt>
      <trkpt lat="56.883185244529" lon="14.833250365703">
        <ele>179.6</ele>
        <time>2020-01-13T19:10:51Z</time>
      </trkpt>
    </trkseg>
  </trk>
</gpx>